Flight Track Log - Related Links

Times and Time Zones

All times are in EDT time to prevent confusion due to time zone crossing. See the DAL268 flight status page for this flight to view local times or setup timezone preferences in your user account.

Time Position Orientation Groundspeed Altitude Reporting Facility
EDT Latitude Longitude Course Direction KTS MPH feet Rate Location/Type
Mon 11:56:10 PM 40.6370 -73.7800 264° West  Level FlightAware ADS-B
Tue 12:11:00 AM 40.4930 -73.3457 114° Southeast  Level FlightAware Approximate
Tue 12:12:00 AM 40.4479 -73.1784 119° Southeast  Level FlightAware Approximate
Tue 12:13:00 AM 40.3842 -73.0193 114° Southeast  Level FlightAware Approximate
Tue 12:14:00 AM 40.4110 -72.8450 75° East  Level FlightAware Approximate
Tue 12:15:00 AM 40.4427 -72.6720 66° East  Level FlightAware Approximate
Tue 12:16:00 AM 40.4787 -72.4990 79° East  Level FlightAware Approximate
Tue 12:17:00 AM 40.5167 -72.3302 90° East  Level FlightAware Approximate
Tue 12:18:00 AM 40.5563 -72.1583 72° East  Level FlightAware Approximate
Tue 12:19:00 AM 40.5991 -71.9869 72° East  Level FlightAware Approximate
Tue 12:20:00 AM 40.6380 -71.8146 72° East  Level FlightAware Approximate
Tue 12:21:00 AM 40.6765 -71.6415 78° East  Level FlightAware Approximate
Tue 12:22:00 AM 40.7076 -71.4656 74° East  Level FlightAware Approximate
Tue 12:23:00 AM 40.7455 -71.2919 74° East  Level FlightAware Approximate
Tue 12:24:00 AM 40.7832 -71.1180 74° East  Level FlightAware Approximate
Tue 12:25:00 AM 40.8206 -70.9439 74° East  Level FlightAware Approximate
Tue 12:28:00 AM 40.5327 -73.4649 114° Southeast  Level FlightAware Approximate
Tue 12:29:00 AM 40.4833 -73.3003 90° East  Level FlightAware Approximate
Tue 12:30:00 AM 40.4300 -73.1365 119° Southeast  Level FlightAware Approximate
Tue 12:31:00 AM 40.3833 -72.9715 90° East  Level FlightAware Approximate
Tue 12:32:00 AM 40.4211 -72.7989 72° East  Level FlightAware Approximate
Tue 12:44:11 AM 40.6340 -73.7850 298° West 120 138  Level FlightAware ADS-B
Tue 12:44:38 AM 40.6470 -73.7830 North 120 138 529 Level FlightAware ADS-B
Tue 12:44:45 AM 40.6480 -73.8150 272° West 185 213 300 2,118 Climbing FlightAware ADS-B
Tue 12:44:55 AM 40.6520 -73.8250 298° West 184 212 600 1,600 Climbing FlightAware ADS-B
Tue 12:45:00 AM 40.6530 -73.8300 285° West 184 212 700 1,385 Climbing FlightAware ADS-B
Tue 12:45:08 AM 40.6540 -73.8390 278° West 188 216 900 1,273 Climbing FlightAware ADS-B
Tue 12:45:33 AM 40.6450 -73.8670 247° West 209 241 1,400 1,273 Climbing FlightAware ADS-B
Tue 12:45:41 AM 40.6390 -73.8750 225° Southwest 217 250 1,600 1,000 Climbing FlightAware ADS-B
Tue 12:45:57 AM 40.6260 -73.8870 215° Southwest 233 268 1,800 889 Climbing FlightAware ADS-B
Tue 12:46:08 AM 40.6150 -73.8930 202° Southwest 243 280 2,000 947 Climbing FlightAware ADS-B
Tue 12:46:16 AM 40.6060 -73.8940 185° South 250 288 2,100 828 Climbing FlightAware ADS-B
Tue 12:46:37 AM 40.5820 -73.8840 162° South 263 303 2,400 828 Climbing FlightAware ADS-B
Tue 12:46:45 AM 40.5740 -73.8750 139° Southeast 268 308 2,500 1,125 Climbing FlightAware ADS-B
Tue 12:46:53 AM 40.5690 -73.8640 121° Southeast 271 312 2,700 1,667 Climbing FlightAware ADS-B
Tue 12:47:03 AM 40.5650 -73.8480 108° East 274 315 3,000 1,667 Climbing FlightAware ADS-B
Tue 12:47:11 AM 40.5640 -73.8360 96° East 275 316 3,200 1,600 Climbing FlightAware ADS-B
Tue 12:47:33 AM 40.5680 -73.7990 82° East 287 330 3,800 1,737 Climbing FlightAware ADS-B
Tue 12:47:49 AM 40.5730 -73.7710 77° East 293 337 4,300 2,341 Climbing FlightAware ADS-B
Tue 12:48:14 AM 40.5807 -73.7257 77° East 296 341 5,400 2,488 Climbing FlightAware ADS-B
Tue 12:48:30 AM 40.5855 -73.6993 77° East 297 342 6,000 2,323 Climbing FlightAware ADS-B
Tue 12:48:45 AM 40.5907 -73.6711 76° East 299 344 6,600 2,200 Climbing FlightAware ADS-B
Tue 12:49:00 AM 40.5959 -73.6443 76° East 306 352 7,100 1,875 Climbing FlightAware ADS-B
Tue 12:49:17 AM 40.6015 -73.6133 77° East 310 357 7,600 2,250 Climbing FlightAware ADS-B
Tue 12:49:32 AM 40.6061 -73.5857 78° East 307 353 8,300 2,609 Climbing FlightAware ADS-B
Tue 12:49:40 AM 40.6077 -73.5709 82° East 307 353 8,600 1,714 Climbing FlightAware ADS-B
Tue 12:49:46 AM 40.6079 -73.5596 89° East 310 357 8,700 1,091 Climbing FlightAware ADS-B
Tue 12:49:51 AM 40.6074 -73.5502 94° East 312 359 8,800 1,500 Climbing FlightAware ADS-B
Tue 12:49:58 AM 40.6057 -73.5370 100° East 315 362 9,000 1,800 Climbing FlightAware ADS-B
Tue 12:50:01 AM 40.6045 -73.5315 106° East 316 364 9,100 1,714 Climbing FlightAware ADS-B
Tue 12:50:05 AM 40.6031 -73.5259 108° East 316 364 9,200 2,400 Climbing FlightAware ADS-B
Tue 12:50:11 AM 40.5996 -73.5133 110° East 315 362 9,500 2,500 Climbing FlightAware ADS-B
Tue 12:50:17 AM 40.5960 -73.5030 115° Southeast 315 362 9,700 1,600 Climbing FlightAware ADS-B
Tue 12:50:26 AM 40.5899 -73.4875 117° Southeast 317 365 9,900 1,077 Climbing FlightAware ADS-B
Tue 12:50:56 AM 40.5674 -73.4357 120° Southeast 340 391 10,400 885 Climbing FlightAware ADS-B
Tue 12:51:27 AM 40.5448 -73.3775 117° Southeast 368 423 10,800 1,082 Climbing FlightAware ADS-B
Tue 12:51:57 AM 40.5212 -73.3158 117° Southeast 384 442 11,500 1,200 Climbing FlightAware ADS-B
Tue 12:52:27 AM 40.4958 -73.2515 117° Southeast 407 468 12,000 1,300 Climbing FlightAware ADS-B
Tue 12:52:57 AM 40.4681 -73.1822 118° Southeast 423 487 12,800 1,870 Climbing FlightAware ADS-B
Tue 12:53:44 AM 40.4235 -73.0753 119° Southeast 434 499 14,400 2,200 Climbing FlightAware ADS-B
Tue 12:53:57 AM 40.4107 -73.0450 119° Southeast 435 501 15,000 2,286 Climbing FlightAware ADS-B
Tue 12:54:05 AM 40.4049 -73.0281 114° Southeast 436 502 15,200 1,385 Climbing FlightAware ADS-B
Tue 12:54:10 AM 40.4014 -73.0128 107° East 439 505 15,300 1,500 Climbing FlightAware ADS-B
Tue 12:54:17 AM 40.3988 -72.9945 101° East 443 510 15,500 1,500 Climbing FlightAware ADS-B
Tue 12:54:30 AM 40.3979 -72.9593 92° East 448 516 15,800 2,000 Climbing FlightAware ADS-B
Tue 12:55:02 AM 40.4102 -72.8768 79° East 449 517 17,000 2,032 Climbing FlightAware ADS-B
Tue 12:55:32 AM 40.4302 -72.7982 71° East 457 526 17,900 1,869 Climbing FlightAware ADS-B
Tue 12:56:03 AM 40.4484 -72.7156 74° East 460 529 18,900 1,645 Climbing FlightAware ADS-B
Tue 12:56:34 AM 40.4668 -72.6285 74° East 470 541 19,600 1,479 Climbing FlightAware ADS-B
Tue 12:57:16 AM 40.4920 -72.5150 74° East 477 549 20,700 1,575 Climbing FlightAware ADS-B
Tue 12:57:54 AM 40.5162 -72.4053 74° East 475 547 21,700 1,541 Climbing FlightAware ADS-B
Tue 12:58:30 AM 40.5383 -72.3058 74° East 488 562 22,600 1,443 Climbing FlightAware ADS-B
Tue 12:59:13 AM 40.5662 -72.1790 74° East 496 571 23,600 1,397 Climbing FlightAware ADS-B
Tue 12:59:43 AM 40.5854 -72.0913 74° East 501 577 24,300 1,253 Climbing FlightAware ADS-B
Tue 01:00:44 AM 40.6250 -71.9110 74° East 511 588 25,500 1,151 Climbing FlightAware ADS-B
Tue 01:00:56 AM 40.6324 -71.8749 75° East 503 579 25,700 360 Climbing FlightAware ADS-B
Tue 01:01:34 AM 40.6530 -71.7790 74° East 515 593 25,800 81 Climbing FlightAware ADS-B
Tue 01:02:10 AM 40.6730 -71.6860 74° East 515 593 25,800  Level FlightAware ADS-B
Tue 01:02:48 AM 40.6940 -71.5890 74° East 515 593 25,800  Level FlightAware ADS-B
Tue 01:03:24 AM 40.7150 -71.4960 73° East 515 593 25,800  Level FlightAware ADS-B
Tue 01:04:00 AM 40.7350 -71.4040 74° East 515 593 25,800 3,171 Level FlightAware ADS-B
Tue 01:04:34 AM 40.8460 -71.2560 45° Northeast 533 613 29,500 3,158 Climbing FlightAware ADS-B
Tue 01:05:16 AM 40.9010 -71.1480 56° Northeast 533 613 29,800 1,050 Climbing FlightAware ADS-B
Tue 01:05:54 AM 40.9570 -71.0310 58° Northeast 538 619 30,900 878 Climbing FlightAware ADS-B
Tue 01:06:38 AM 41.0090 -70.9240 57° Northeast 538 619 31,000  Climbing FlightAware ADS-B
Tue 01:07:19 AM 41.0750 -70.7880 57° Northeast 535 616 30,900 -75 Descending FlightAware ADS-B
Tue 01:07:58 AM 41.1190 -70.6970 57° Northeast 535 616 30,900  Level FlightAware ADS-B
Tue 01:08:40 AM 41.1800 -70.5710 57° Northeast 527 606 30,900  Level FlightAware ADS-B
Tue 01:09:20 AM 41.2240 -70.4780 58° Northeast 527 606 30,900  Level FlightAware ADS-B
Tue 01:09:57 AM 41.2650 -70.3910 58° Northeast 527 606 30,900  Level FlightAware ADS-B
Tue 01:10:33 AM 41.3040 -70.3070 58° Northeast 527 606 30,900  Level FlightAware ADS-B
Tue 01:11:08 AM 41.3430 -70.2250 58° Northeast 527 606 30,900  Level FlightAware ADS-B
Tue 01:11:54 AM 41.3930 -70.1170 58° Northeast 527 606 30,900  Level FlightAware ADS-B
Tue 01:12:30 AM 41.4330 -70.0330 58° Northeast 527 606 30,900  Level FlightAware ADS-B
Tue 01:13:05 AM 41.5290 -69.8410 56° Northeast 30,900  Level FlightAware ADS-B
Tue 01:14:01 AM 41.5960 -69.6950 58° Northeast 524 603 30,900  Level FlightAware ADS-B
Tue 01:14:37 AM 41.6360 -69.6110 57° Northeast 524 603 30,900  Level FlightAware ADS-B
Tue 01:15:17 AM 41.6880 -69.4970 59° Northeast 525 604 30,900  Level FlightAware ADS-B
Tue 01:15:53 AM 41.7280 -69.4120 58° Northeast 525 604 30,900  Level FlightAware ADS-B
Tue 01:16:29 AM 41.7670 -69.3280 58° Northeast 525 604 30,900  Level FlightAware ADS-B
Tue 01:17:17 AM 41.8480 -69.1510 58° Northeast 529 609 30,900  Level FlightAware ADS-B
Tue 01:18:08 AM 41.9170 -68.9990 59° Northeast 532 612 30,900  Level FlightAware ADS-B
Tue 01:18:42 AM 41.9610 -68.9030 58° Northeast 533 613 30,900  Level FlightAware ADS-B
Tue 01:19:18 AM 42.0060 -68.8030 59° Northeast 535 616 30,900  Level FlightAware ADS-B
Tue 01:19:52 AM 42.0520 -68.7010 59° Northeast 535 616 30,900  Level FlightAware ADS-B
Tue 01:19:57 AM 42.0580 -68.6870 60° Northeast 535 616 30,900  Level FlightAware ADS-B
Tue 01:20:50 AM 42.1180 -68.5530 59° Northeast 536 617 30,900  Level FlightAware ADS-B
Tue 01:21:30 AM 42.1780 -68.4210 58° Northeast 535 616 30,900  Level FlightAware ADS-B
Tue 01:22:20 AM 42.2290 -68.3040 59° Northeast 533 613 30,900  Level FlightAware ADS-B
Tue 01:22:44 AM 42.2550 -68.2460 59° Northeast 533 613 30,900  Level FlightAware ADS-B
Tue 01:24:07 AM 42.3450 -68.0440 59° Northeast 533 613 30,900  Level FlightAware ADS-B
Tue 01:24:43 AM 42.3840 -67.9570 59° Northeast 533 613 30,900  Level FlightAware ADS-B
Tue 01:25:19 AM 42.4230 -67.8690 59° Northeast 533 613 30,900  Level FlightAware ADS-B
Tue 01:25:55 AM 42.4610 -67.7810 60° Northeast 533 613 30,900  Level FlightAware ADS-B
Tue 01:26:31 AM 42.5000 -67.6940 59° Northeast 533 613 30,900  Level FlightAware ADS-B
Tue 01:27:07 AM 42.5390 -67.6060 59° Northeast 533 613 30,900  Level FlightAware ADS-B
Tue 01:27:44 AM 42.5790 -67.5160 59° Northeast 533 613 30,900  Level FlightAware ADS-B
Tue 01:28:20 AM 42.6180 -67.4280 59° Northeast 533 613 30,900  Level FlightAware ADS-B
Tue 01:28:56 AM 42.6570 -67.3400 59° Northeast 533 613 30,900  Level FlightAware ADS-B
Tue 01:29:32 AM 42.6960 -67.2520 59° Northeast 533 613 30,900  Level FlightAware ADS-B
Tue 01:30:08 AM 42.7340 -67.1640 60° Northeast 533 613 30,900  Level FlightAware ADS-B
Tue 01:30:45 AM 42.7740 -67.0730 59° Northeast 533 613 30,900  Level FlightAware ADS-B
Tue 01:31:21 AM 42.8130 -66.9850 59° Northeast 533 613 30,900  Level FlightAware ADS-B
Tue 01:32:01 AM 42.9640 -66.6030 62° Northeast 30,900  Level FlightAware ADS-B
Tue 01:32:45 AM 43.0190 -66.4730 60° Northeast 534 615 30,900  Level FlightAware ADS-B
Tue 01:33:21 AM 43.0630 -66.3670 60° Northeast 533 613 30,900  Level FlightAware ADS-B
Tue 01:33:55 AM 43.1060 -66.2640 60° Northeast 533 613 30,900  Level FlightAware ADS-B
Tue 01:34:36 AM 43.1550 -66.1450 61° Northeast 534 615 30,900  Level FlightAware ADS-B
Tue 01:35:11 AM 43.1980 -66.0410 60° Northeast 534 615 30,900  Level FlightAware ADS-B
Tue 01:35:52 AM 43.2480 -65.9190 61° Northeast 535 616 30,900  Level FlightAware ADS-B
Tue 01:36:26 AM 43.2910 -65.8150 60° Northeast 536 617 30,900  Level FlightAware ADS-B
Tue 01:37:02 AM 43.3340 -65.7100 61° Northeast 536 617 30,900  Level FlightAware ADS-B
Tue 01:37:36 AM 43.3760 -65.6050 61° Northeast 540 621 30,900  Level FlightAware ADS-B
Tue 01:38:12 AM 43.4190 -65.4970 61° Northeast 537 618 30,900  Level FlightAware ADS-B
Tue 01:38:47 AM 43.4610 -65.3950 60° Northeast 538 619 30,900  Level FlightAware ADS-B
Tue 01:39:22 AM 43.5040 -65.2860 61° Northeast 543 625 30,900  Level FlightAware ADS-B
Tue 01:40:01 AM 43.5510 -65.1670 61° Northeast 544 626 30,900  Level FlightAware ADS-B
Tue 01:40:27 AM 43.5830 -65.0890 60° Northeast 544 626 30,900  Level FlightAware ADS-B
Tue 01:41:06 AM 43.6300 -64.9700 61° Northeast 545 627 30,900  Level FlightAware ADS-B
Tue 01:41:37 AM 43.6670 -64.8780 61° Northeast 545 627 30,900  Level FlightAware ADS-B
Tue 01:42:11 AM 43.7090 -64.7710 61° Northeast 546 628 30,900  Level FlightAware ADS-B
Tue 01:42:45 AM 43.7350 -64.7030 62° Northeast 545 627 30,900  Level FlightAware ADS-B
Tue 01:43:21 AM 43.7930 -64.5560 61° Northeast 546 628 30,900  Level FlightAware ADS-B
Tue 01:43:57 AM 43.8340 -64.4520 61° Northeast 547 629 30,900  Level FlightAware ADS-B
Tue 01:44:33 AM 43.8780 -64.3380 62° Northeast 544 626 30,900  Level FlightAware ADS-B
Tue 01:45:09 AM 43.9230 -64.2210 62° Northeast 544 626 30,900  Level FlightAware ADS-B
Tue 01:45:48 AM 43.9630 -64.1170 62° Northeast 544 626 30,900  Level FlightAware ADS-B
Tue 01:46:26 AM 44.0110 -63.9940 61° Northeast 543 625 30,900  Level FlightAware ADS-B
Tue 01:47:02 AM 44.0560 -63.8770 62° Northeast 542 624 30,900  Level FlightAware ADS-B
Tue 01:47:32 AM 44.0900 -63.7840 63° Northeast 542 624 30,900  Level FlightAware ADS-B
Tue 01:48:08 AM 44.1300 -63.6830 61° Northeast 541 623 30,900  Level FlightAware ADS-B
Tue 01:48:43 AM 44.1720 -63.5690 63° Northeast 540 621 30,900  Level FlightAware ADS-B
Tue 01:49:19 AM 44.2160 -63.4520 62° Northeast 541 623 30,900  Level FlightAware ADS-B
Tue 01:49:55 AM 44.2560 -63.3460 62° Northeast 542 624 30,900  Level FlightAware ADS-B
Tue 01:50:37 AM 44.3060 -63.2100 63° Northeast 541 623 30,900  Level FlightAware ADS-B
Tue 01:51:14 AM 44.3460 -63.1050 62° Northeast 541 623 30,900  Level FlightAware ADS-B
Tue 01:51:50 AM 44.3890 -62.9870 63° Northeast 541 623 30,900  Level FlightAware ADS-B
Tue 01:52:20 AM 44.4230 -62.8970 62° Northeast 542 624 30,900 91 Level FlightAware ADS-B
Tue 01:52:56 AM 44.4630 -62.7880 63° Northeast 543 625 31,000 324 Climbing FlightAware ADS-B
Tue 01:53:34 AM 44.5070 -62.6680 63° Northeast 550 633 31,300 609 Climbing FlightAware ADS-B
Tue 01:54:05 AM 44.5440 -62.5660 63° Northeast 555 639 31,700 783 Climbing FlightAware ADS-B
Tue 01:54:43 AM 44.5880 -62.4440 63° Northeast 559 643 32,200 706 Climbing FlightAware ADS-B
Tue 01:55:13 AM 44.6200 -62.3560 63° Northeast 561 646 32,500 312 Climbing FlightAware ADS-B
Tue 01:56:00 AM 44.6680 -62.2220 63° Northeast 561 646 32,600 71 Climbing FlightAware ADS-B
Tue 01:56:37 AM 44.7050 -62.1200 63° Northeast 561 646 32,600  Level FlightAware ADS-B
Tue 01:57:15 AM 44.7430 -62.0150 63° Northeast 561 646 32,600  Level FlightAware ADS-B
Tue 01:57:52 AM 44.7800 -61.9120 63° Northeast 561 646 32,600  Level FlightAware ADS-B
Tue 01:58:29 AM 44.8170 -61.8100 63° Northeast 561 646 32,600  Level FlightAware ADS-B
Tue 01:59:05 AM 44.8530 -61.7100 63° Northeast 561 646 32,600  Level FlightAware ADS-B
Tue 01:59:42 AM 44.8900 -61.6070 63° Northeast 561 646 32,600  Level FlightAware ADS-B
Tue 02:00:18 AM 44.9270 -61.5070 62° Northeast 561 646 32,600  Level FlightAware ADS-B
Tue 02:00:55 AM 44.9640 -61.4050 63° Northeast 561 646 32,600  Level FlightAware ADS-B
Tue 02:01:31 AM 45.0000 -61.3050 63° Northeast 561 646 32,600 261 Level FlightAware ADS-B
Tue 02:02:04 AM 45.1030 -60.9820 66° East 571 657 32,900 269 Climbing FlightAware ADS-B
Tue 02:02:38 AM 45.1410 -60.8710 64° Northeast 571 657 32,900  Level FlightAware ADS-B
Tue 02:03:14 AM 45.1830 -60.7460 64° Northeast 571 657 32,900  Level FlightAware ADS-B
Tue 02:03:50 AM 45.2240 -60.6250 64° Northeast 570 656 32,900  Level FlightAware ADS-B
Tue 02:04:22 AM 45.2600 -60.5170 65° Northeast 570 656 32,900  Level FlightAware ADS-B
Tue 02:04:58 AM 45.3010 -60.3990 64° Northeast 570 656 32,900  Level FlightAware ADS-B
Tue 02:05:34 AM 45.3410 -60.2770 65° Northeast 569 655 32,900  Level FlightAware ADS-B
Tue 02:06:08 AM 45.3800 -60.1620 64° Northeast 571 657 32,900  Level FlightAware ADS-B
Tue 02:06:44 AM 45.4210 -60.0400 64° Northeast 572 658 32,900  Level FlightAware ADS-B
Tue 02:07:20 AM 45.4610 -59.9130 66° East 573 659 32,900  Level FlightAware ADS-B
Tue 02:07:52 AM 45.4960 -59.8070 65° Northeast 575 662 32,900  Level FlightAware ADS-B
Tue 02:08:28 AM 45.5380 -59.6800 65° Northeast 577 664 32,900  Level FlightAware ADS-B
Tue 02:09:04 AM 45.5780 -59.5550 65° Northeast 579 666 32,900  Level FlightAware ADS-B
Tue 02:09:40 AM 45.6190 -59.4340 64° Northeast 580 667 32,900  Level FlightAware ADS-B
Tue 02:10:12 AM 45.6550 -59.3190 66° East 581 669 32,900  Level FlightAware ADS-B
Tue 02:10:44 AM 45.6900 -59.2110 65° Northeast 582 670 32,900  Level FlightAware ADS-B
Tue 02:11:21 AM 45.7310 -59.0850 65° Northeast 583 671 32,900  Level FlightAware ADS-B
Tue 02:11:53 AM 45.7600 -58.9900 66° East 583 671 32,900  Level FlightAware ADS-B
Tue 02:12:32 AM 45.8110 -58.8280 66° East 585 673 32,900  Level FlightAware ADS-B
Tue 02:13:08 AM 45.8520 -58.7010 65° Northeast 586 674 32,900  Level FlightAware ADS-B
Tue 02:13:44 AM 45.8920 -58.5730 66° East 588 677 32,900  Level FlightAware ADS-B
Tue 02:14:16 AM 45.9270 -58.4590 66° East 590 679 32,900  Level FlightAware ADS-B
Tue 02:14:54 AM 45.9700 -58.3230 65° Northeast 590 679 32,900  Level FlightAware ADS-B
Tue 02:15:30 AM 46.0090 -58.1980 66° East 591 680 32,900  Level FlightAware ADS-B
Tue 02:16:02 AM 46.0430 -58.0830 67° East 591 680 32,900  Level FlightAware ADS-B
Tue 02:16:38 AM 46.0840 -57.9530 66° East 593 682 32,900  Level FlightAware ADS-B
Tue 02:17:19 AM 46.1230 -57.8260 66° East 593 682 32,900  Level FlightAware ADS-B
Tue 02:17:55 AM 46.1570 -57.7150 66° East 593 682 32,900  Level FlightAware ADS-B
Tue 02:18:31 AM 46.1910 -57.6040 66° East 593 682 32,900  Level FlightAware ADS-B
Tue 02:19:19 AM 46.2610 -57.3650 67° East 602 693 32,900  Level FlightAware ADS-B
Tue 02:20:00 AM 46.3020 -57.2280 67° East 603 694 32,900  Level FlightAware ADS-B
Tue 02:20:35 AM 46.3430 -57.0820 68° East 604 695 32,900  Level FlightAware ADS-B
Tue 02:21:11 AM 46.3800 -56.9470 68° East 603 694 32,900  Level FlightAware ADS-B
Tue 02:21:47 AM 46.4150 -56.8120 69° East 602 693 32,900  Level FlightAware ADS-B
Tue 02:22:19 AM 46.4480 -56.6920 68° East 600 690 32,900  Level FlightAware ADS-B
Tue 02:22:55 AM 46.4830 -56.5610 69° East 601 692 32,900  Level FlightAware ADS-B
Tue 02:23:31 AM 46.5210 -56.4180 69° East 603 694 32,900  Level FlightAware ADS-B
Tue 02:24:09 AM 46.5580 -56.2780 69° East 604 695 32,900  Level FlightAware ADS-B
Tue 02:24:40 AM 46.5890 -56.1600 69° East 608 700 32,900  Level FlightAware ADS-B
Tue 02:25:17 AM 46.6260 -56.0180 69° East 612 704 32,900  Level FlightAware ADS-B
Tue 02:25:53 AM 46.6630 -55.8790 69° East 613 705 32,900  Level FlightAware ADS-B
Tue 02:26:25 AM 46.6950 -55.7560 69° East 613 705 32,900  Level FlightAware ADS-B
Tue 02:27:03 AM 46.7330 -55.6090 69° East 614 707 32,900  Level FlightAware ADS-B
Tue 02:27:39 AM 46.7680 -55.4700 70° East 614 707 32,900  Level FlightAware ADS-B
Tue 02:28:11 AM 46.8000 -55.3450 69° East 614 707 32,900  Level FlightAware ADS-B
Tue 02:28:45 AM 46.8330 -55.2140 70° East 613 705 32,900  Level FlightAware ADS-B
Tue 02:29:22 AM 46.8690 -55.0700 70° East 613 705 32,900  Level FlightAware ADS-B
Tue 02:29:56 AM 46.9030 -54.9340 70° East 612 704 32,900  Level FlightAware ADS-B
Tue 02:30:32 AM 46.9370 -54.7980 70° East 612 704 32,900  Level FlightAware ADS-B
Tue 02:31:08 AM 46.9710 -54.6590 70° East 611 703 32,900  Level FlightAware ADS-B
Tue 02:31:42 AM 47.0040 -54.5270 70° East 610 702 32,900  Level FlightAware ADS-B
Tue 02:32:16 AM 47.0350 -54.3950 71° East 609 701 32,900  Level FlightAware ADS-B
Tue 02:32:52 AM 47.0700 -54.2510 70° East 606 697 32,900  Level FlightAware ADS-B
Tue 02:33:28 AM 47.1040 -54.1120 70° East 605 696 32,900  Level FlightAware ADS-B
Tue 02:34:04 AM 47.1370 -53.9760 70° East 605 696 32,900  Level FlightAware ADS-B
Tue 02:34:36 AM 47.1660 -53.8480 72° East 604 695 32,900  Level FlightAware ADS-B
Tue 02:35:08 AM 47.1950 -53.7280 70° East 603 694 32,900  Level FlightAware ADS-B
Tue 02:35:48 AM 47.2310 -53.5740 71° East 602 693 32,900  Level FlightAware ADS-B
Tue 02:36:20 AM 47.2610 -53.4460 71° East 602 693 32,900  Level FlightAware ADS-B
Tue 02:36:56 AM 47.2930 -53.3100 71° East 600 690 32,900  Level FlightAware ADS-B
Tue 02:37:30 AM 47.3240 -53.1750 71° East 599 689 32,900  Level FlightAware ADS-B
Tue 02:38:08 AM 47.3570 -53.0320 71° East 598 688 32,900  Level FlightAware ADS-B
Tue 02:38:40 AM 47.3850 -52.9090 71° East 597 687 32,900  Level FlightAware ADS-B
Tue 02:39:18 AM 47.4180 -52.7620 72° East 595 685 32,900  Level FlightAware ADS-B
Tue 02:39:54 AM 47.4490 -52.6200 72° East 592 681 32,900  Level FlightAware ADS-B
Tue 02:40:26 AM 47.4760 -52.5010 71° East 591 680 32,900  Level FlightAware ADS-B
Tue 02:41:03 AM 47.5070 -52.3640 71° East 588 677 32,900  Level FlightAware ADS-B
Tue 02:41:38 AM 47.5370 -52.2260 72° East 585 673 32,900  Level FlightAware ADS-B
Tue 02:42:10 AM 47.5640 -52.1050 72° East 584 672 32,900  Level FlightAware ADS-B
Tue 02:42:46 AM 47.5930 -51.9720 72° East 582 670 32,900  Level FlightAware ADS-B
Tue 02:43:14 AM 47.6160 -51.8620 73° East 582 670 32,900  Level FlightAware ADS-B
Tue 02:43:52 AM 47.6470 -51.7180 72° East 582 670 32,900  Level FlightAware ADS-B
Tue 02:44:23 AM 47.6720 -51.6000 72° East 582 670 32,900  Level FlightAware ADS-B
Tue 02:45:00 AM 47.7030 -51.4590 72° East 582 670 32,900  Level FlightAware ADS-B
Tue 02:45:29 AM 47.7270 -51.3450 73° East 582 670 32,900  Level FlightAware ADS-B
Tue 02:46:12 AM 47.7590 -51.1920 73° East 579 666 32,900  Level FlightAware ADS-B
Tue 02:46:42 AM 47.7830 -51.0740 73° East 578 665 32,900  Level FlightAware ADS-B
Tue 02:47:17 AM 47.8110 -50.9400 73° East 576 663 32,900  Level FlightAware ADS-B
Tue 02:47:54 AM 47.8400 -50.8000 73° East 575 662 32,900  Level FlightAware ADS-B
Tue 02:48:28 AM 47.8670 -50.6710 73° East 575 662 32,900  Level FlightAware ADS-B
Tue 02:49:05 AM 47.8910 -50.5510 73° East 575 662 32,900  Level FlightAware ADS-B
Tue 02:49:41 AM 47.9150 -50.4350 73° East 575 662 32,900  Level FlightAware ADS-B
Tue 02:50:18 AM 47.9390 -50.3160 73° East 575 662 32,900  Level FlightAware ADS-B
Tue 02:50:55 AM 47.9640 -50.1960 73° East 575 662 32,900  Level FlightAware ADS-B
Tue 02:51:31 AM 47.9870 -50.0800 73° East 575 662 32,900  Level FlightAware ADS-B
Tue 02:52:07 AM 48.0110 -49.9640 73° East 575 662 32,900  Level FlightAware ADS-B
Tue 02:52:44 AM 48.0360 -49.8440 73° East 575 662 32,900  Level FlightAware ADS-B
Tue 02:53:20 AM 48.0590 -49.7280 73° East 575 662 32,900  Level FlightAware ADS-B
Tue 02:53:56 AM 48.0830 -49.6110 73° East 575 662 32,900  Level FlightAware ADS-B
Tue 02:54:32 AM 48.1070 -49.4950 73° East 575 662 32,900  Level FlightAware ADS-B
Tue 02:55:08 AM 48.1310 -49.3780 73° East 575 662 32,900  Level FlightAware ADS-B
Tue 02:55:44 AM 48.1550 -49.2610 73° East 575 662 32,900  Level FlightAware ADS-B
Tue 02:56:20 AM 48.1780 -49.1450 73° East 575 662 32,900  Level FlightAware ADS-B
Tue 02:56:57 AM 48.2030 -49.0240 73° East 575 662 32,900  Level FlightAware ADS-B
Tue 02:57:33 AM 48.2270 -48.9080 73° East 575 662 32,900  Level FlightAware ADS-B
Tue 02:58:09 AM 48.2500 -48.7910 74° East 575 662 32,900  Level FlightAware ADS-B
Tue 02:58:40 AM 48.1833 -48.2333 74° East 570 656 32,900  Level Gander Center
Tue 02:59:40 AM 48.2333 -48.0167 71° East 570 656 32,900  Level Gander Center
Tue 03:00:40 AM 48.2500 -47.7833 84° East 570 656 32,900  Level Gander Center
Tue 03:01:40 AM 48.2833 -47.5500 78° East 570 656 32,900 -33 Level Gander Center
Tue 03:03:40 AM 48.3833 -47.1167 71° East 570 656 32,800 12 Descending Gander Center
Tue 03:05:00 AM 48.4174 -46.8262 80° East  Level FlightAware Approximate
Tue 03:12:00 AM 48.5845 -45.2954 80° East  Level FlightAware Approximate
Tue 03:13:00 AM 48.6067 -45.0759 81° East  Level FlightAware Approximate
Tue 03:14:00 AM 48.6285 -44.8562 81° East  Level FlightAware Approximate
Tue 03:15:00 AM 48.6499 -44.6363 82° East  Level FlightAware Approximate
Tue 03:16:00 AM 48.6708 -44.4163 82° East  Level FlightAware Approximate
Tue 03:17:00 AM 48.6914 -44.1960 82° East  Level FlightAware Approximate
Tue 03:18:00 AM 48.7115 -43.9756 82° East  Level FlightAware Approximate
Tue 03:19:00 AM 48.7312 -43.7550 82° East  Level FlightAware Approximate
Tue 03:20:00 AM 48.7504 -43.5343 82° East  Level FlightAware Approximate
Tue 03:21:00 AM 48.7693 -43.3133 83° East  Level FlightAware Approximate
Tue 03:22:00 AM 48.7877 -43.0922 83° East  Level FlightAware Approximate
Tue 03:23:00 AM 48.8057 -42.8710 83° East  Level FlightAware Approximate
Tue 03:24:00 AM 48.8233 -42.6496 83° East  Level FlightAware Approximate
Tue 03:25:00 AM 48.8405 -42.4280 83° East  Level FlightAware Approximate
Tue 03:26:00 AM 48.8572 -42.2063 83° East  Level FlightAware Approximate
Tue 03:27:00 AM 48.8735 -41.9844 84° East  Level FlightAware Approximate
Tue 03:28:00 AM 48.8894 -41.7624 84° East  Level FlightAware Approximate
Tue 03:29:00 AM 48.9048 -41.5403 84° East  Level FlightAware Approximate
Tue 03:30:00 AM 48.9198 -41.3180 84° East  Level FlightAware Approximate
Tue 03:31:00 AM 48.9344 -41.0956 84° East  Level FlightAware Approximate
Tue 03:32:00 AM 48.9486 -40.8730 84° East  Level FlightAware Approximate
Tue 03:33:00 AM 48.9624 -40.6504 85° East  Level FlightAware Approximate
Tue 03:34:00 AM 48.9757 -40.4276 85° East  Level FlightAware Approximate
Tue 03:35:00 AM 48.9885 -40.2047 85° East  Level FlightAware Approximate
Tue 03:36:00 AM 49.0026 -39.9820 77° East  Level FlightAware Approximate
Tue 03:37:00 AM 49.0335 -39.7689 77° East  Level FlightAware Approximate
Tue 03:38:00 AM 49.0639 -39.5556 78° East  Level FlightAware Approximate
Tue 03:39:00 AM 49.0940 -39.3419 78° East  Level FlightAware Approximate
Tue 03:40:00 AM 49.1236 -39.1280 78° East  Level FlightAware Approximate
Tue 03:41:00 AM 49.1529 -38.9139 78° East  Level FlightAware Approximate
Tue 03:42:00 AM 49.1818 -38.6995 78° East  Level FlightAware Approximate
Tue 03:43:00 AM 49.2102 -38.4849 78° East  Level FlightAware Approximate
Tue 03:44:00 AM 49.2383 -38.2700 79° East  Level FlightAware Approximate
Tue 03:45:00 AM 49.2660 -38.0549 79° East  Level FlightAware Approximate
Tue 03:46:00 AM 49.2932 -37.8395 79° East  Level FlightAware Approximate
Tue 03:47:00 AM 49.3201 -37.6239 79° East  Level FlightAware Approximate
Tue 03:48:00 AM 49.3466 -37.4080 79° East  Level FlightAware Approximate
Tue 03:49:00 AM 49.3726 -37.1920 79° East  Level FlightAware Approximate
Tue 03:50:00 AM 49.3983 -36.9757 80° East  Level FlightAware Approximate
Tue 03:51:00 AM 49.4236 -36.7591 80° East  Level FlightAware Approximate
Tue 03:52:00 AM 49.4484 -36.5424 80° East  Level FlightAware Approximate
Tue 03:53:00 AM 49.4729 -36.3254 80° East  Level FlightAware Approximate
Tue 03:54:00 AM 49.4969 -36.1083 80° East  Level FlightAware Approximate
Tue 03:55:00 AM 49.5206 -35.8909 80° East  Level FlightAware Approximate
Tue 03:56:00 AM 49.5438 -35.6733 81° East  Level FlightAware Approximate
Tue 03:57:00 AM 49.5666 -35.4555 81° East  Level FlightAware Approximate
Tue 03:58:00 AM 49.5890 -35.2375 81° East  Level FlightAware Approximate
Tue 03:59:00 AM 49.6110 -35.0193 81° East  Level FlightAware Approximate
Tue 04:00:00 AM 49.6326 -34.8009 81° East  Level FlightAware Approximate
Tue 04:01:00 AM 49.6538 -34.5823 81° East  Level FlightAware Approximate
Tue 04:02:00 AM 49.6746 -34.3635 82° East  Level FlightAware Approximate
Tue 04:03:00 AM 49.6949 -34.1445 82° East  Level FlightAware Approximate
Tue 04:04:00 AM 49.7149 -33.9254 82° East  Level FlightAware Approximate
Tue 04:05:00 AM 49.7344 -33.7061 82° East  Level FlightAware Approximate
Tue 04:06:00 AM 49.7535 -33.4866 82° East  Level FlightAware Approximate
Tue 04:07:00 AM 49.7722 -33.2669 82° East  Level FlightAware Approximate
Tue 04:08:00 AM 49.7905 -33.0471 83° East  Level FlightAware Approximate
Tue 04:09:00 AM 49.8084 -32.8270 83° East  Level FlightAware Approximate
Tue 04:10:00 AM 49.8258 -32.6069 83° East  Level FlightAware Approximate
Tue 04:11:00 AM 49.8429 -32.3866 83° East  Level FlightAware Approximate
Tue 04:12:00 AM 49.8595 -32.1661 83° East  Level FlightAware Approximate
Tue 04:13:00 AM 49.8757 -31.9455 83° East  Level FlightAware Approximate
Tue 04:14:00 AM 49.8915 -31.7247 84° East  Level FlightAware Approximate
Tue 04:15:00 AM 49.9068 -31.5038 84° East  Level FlightAware Approximate
Tue 04:16:00 AM 49.9218 -31.2827 84° East  Level FlightAware Approximate
Tue 04:17:00 AM 49.9363 -31.0616 84° East  Level FlightAware Approximate
Tue 04:18:00 AM 49.9504 -30.8402 84° East  Level FlightAware Approximate
Tue 04:19:00 AM 49.9641 -30.6188 84° East  Level FlightAware Approximate
Tue 04:20:00 AM 49.9773 -30.3972 85° East  Level FlightAware Approximate
Tue 04:21:00 AM 49.9901 -30.1755 85° East  Level FlightAware Approximate
Tue 04:22:00 AM 50.0020 -29.9533 86° East  Level FlightAware Approximate
Tue 04:23:00 AM 50.0113 -29.7306 86° East  Level FlightAware Approximate
Tue 04:24:00 AM 50.0201 -29.5079 86° East  Level FlightAware Approximate
Tue 04:25:00 AM 50.0286 -29.2852 87° East  Level FlightAware Approximate
Tue 04:26:00 AM 50.0366 -29.0623 87° East  Level FlightAware Approximate
Tue 04:27:00 AM 50.0442 -28.8394 87° East  Level FlightAware Approximate
Tue 04:28:00 AM 50.0513 -28.6164 87° East  Level FlightAware Approximate
Tue 04:29:00 AM 50.0580 -28.3934 87° East  Level FlightAware Approximate
Tue 04:30:00 AM 50.0643 -28.1702 87° East  Level FlightAware Approximate
Tue 04:31:00 AM 50.0702 -27.9475 88° East  Level FlightAware Approximate
Tue 04:32:00 AM 50.0756 -27.7246 88° East  Level FlightAware Approximate
Tue 04:33:00 AM 50.0806 -27.5017 88° East  Level FlightAware Approximate
Tue 04:34:00 AM 50.0852 -27.2788 88° East  Level FlightAware Approximate
Tue 04:35:00 AM 50.0894 -27.0558 88° East  Level FlightAware Approximate
Tue 04:36:00 AM 50.0931 -26.8328 88° East  Level FlightAware Approximate
Tue 04:37:00 AM 50.0964 -26.6098 89° East  Level FlightAware Approximate
Tue 04:38:00 AM 50.0993 -26.3867 89° East  Level FlightAware Approximate
Tue 04:39:00 AM 50.1017 -26.1636 89° East  Level FlightAware Approximate
Tue 04:40:00 AM 50.1037 -25.9405 89° East  Level FlightAware Approximate
Tue 04:41:00 AM 50.1053 -25.7174 89° East  Level FlightAware Approximate
Tue 04:42:00 AM 50.1065 -25.4942 89° East  Level FlightAware Approximate
Tue 04:43:00 AM 50.1072 -25.2711 90° East  Level FlightAware Approximate
Tue 04:44:00 AM 50.1075 -25.0479 90° East  Level FlightAware Approximate
Tue 04:45:00 AM 50.1074 -24.8247 90° East  Level FlightAware Approximate
Tue 04:46:00 AM 50.1068 -24.6016 90° East  Level FlightAware Approximate
Tue 04:47:00 AM 50.1059 -24.3784 90° East  Level FlightAware Approximate
Tue 04:48:00 AM 50.1045 -24.1553 90° East  Level FlightAware Approximate
Tue 04:49:00 AM 50.1026 -23.9322 91° East  Level FlightAware Approximate
Tue 04:50:00 AM 50.1004 -23.7091 91° East  Level FlightAware Approximate
Tue 04:51:00 AM 50.0977 -23.4860 91° East  Level FlightAware Approximate
Tue 04:52:00 AM 50.0946 -23.2629 91° East  Level FlightAware Approximate
Tue 04:53:00 AM 50.0910 -23.0399 91° East  Level FlightAware Approximate
Tue 04:54:00 AM 50.0871 -22.8169 92° East  Level FlightAware Approximate
Tue 04:55:00 AM 50.0827 -22.5940 92° East  Level FlightAware Approximate
Tue 04:56:00 AM 50.0778 -22.3711 92° East  Level FlightAware Approximate
Tue 04:57:00 AM 50.0726 -22.1482 92° East  Level FlightAware Approximate
Tue 04:58:00 AM 50.0669 -21.9242 92° East  Level FlightAware Approximate
Tue 04:59:00 AM 50.0607 -21.7007 92° East  Level FlightAware Approximate
Tue 05:00:00 AM 50.0542 -21.4772 93° East  Level FlightAware Approximate
Tue 05:01:00 AM 50.0472 -21.2538 93° East  Level FlightAware Approximate
Tue 05:02:00 AM 50.0398 -21.0305 93° East  Level FlightAware Approximate
Tue 05:03:00 AM 50.0320 -20.8072 93° East  Level FlightAware Approximate
Tue 05:04:00 AM 50.0237 -20.5840 93° East  Level FlightAware Approximate
Tue 05:05:00 AM 50.0150 -20.3609 93° East  Level FlightAware Approximate
Tue 05:06:00 AM 50.0059 -20.1379 94° East  Level FlightAware Approximate
Tue 05:07:00 AM 49.9974 -19.9148 93° East  Level FlightAware Approximate
Tue 05:08:00 AM 49.9902 -19.6917 93° East  Level FlightAware Approximate
Tue 05:09:00 AM 49.9826 -19.4687 93° East  Level FlightAware Approximate
Tue 05:10:00 AM 49.9745 -19.2457 93° East  Level FlightAware Approximate
Tue 05:11:00 AM 49.9661 -19.0228 93° East  Level FlightAware Approximate
Tue 05:12:00 AM 49.9572 -18.7999 93° East  Level FlightAware Approximate
Tue 05:13:00 AM 49.9479 -18.5772 94° East  Level FlightAware Approximate
Tue 05:14:00 AM 49.9381 -18.3545 94° East  Level FlightAware Approximate
Tue 05:15:00 AM 49.9280 -18.1320 94° East  Level FlightAware Approximate
Tue 05:16:00 AM 49.9174 -17.9095 94° East  Level FlightAware Approximate
Tue 05:17:00 AM 49.9063 -17.6871 94° East  Level FlightAware Approximate
Tue 05:18:00 AM 49.8949 -17.4648 94° East  Level FlightAware Approximate
Tue 05:19:00 AM 49.8830 -17.2423 95° East  Level FlightAware Approximate
Tue 05:20:00 AM 49.8707 -17.0199 95° East  Level FlightAware Approximate
Tue 05:21:00 AM 49.8579 -16.7976 95° East  Level FlightAware Approximate
Tue 05:22:00 AM 49.8448 -16.5754 95° East  Level FlightAware Approximate
Tue 05:23:00 AM 49.8312 -16.3533 95° East  Level FlightAware Approximate
Tue 05:24:00 AM 49.8172 -16.1313 96° East  Level FlightAware Approximate
Tue 05:25:00 AM 49.8027 -15.9095 96° East  Level FlightAware Approximate
Tue 05:26:00 AM 49.7879 -15.6878 96° East  Level FlightAware Approximate
Tue 05:27:00 AM 49.7726 -15.4663 96° East  Level FlightAware Approximate
Tue 05:28:00 AM 49.7569 -15.2449 96° East  Level FlightAware Approximate
Tue 05:29:00 AM 49.7407 -15.0236 96° East  Level FlightAware Approximate
Tue 05:30:00 AM 49.7242 -14.8025 97° East  Level FlightAware Approximate
Tue 05:31:00 AM 49.7072 -14.5815 97° East  Level FlightAware Approximate
Tue 05:32:00 AM 49.6898 -14.3608 97° East  Level FlightAware Approximate
Tue 05:33:00 AM 49.6720 -14.1401 97° East  Level FlightAware Approximate
Tue 05:34:00 AM 49.6538 -13.9196 97° East  Level FlightAware Approximate
Tue 05:35:00 AM 49.6351 -13.6993 97° East  Level FlightAware Approximate
Tue 05:36:00 AM 49.6161 -13.4792 98° East  Level FlightAware Approximate
Tue 05:37:00 AM 49.5966 -13.2592 98° East  Level FlightAware Approximate
Tue 05:38:00 AM 49.5767 -13.0394 98° East  Level FlightAware Approximate
Tue 05:39:00 AM 49.5564 -12.8198 98° East  Level FlightAware Approximate
Tue 05:40:00 AM 49.5356 -12.6004 98° East  Level FlightAware Approximate
Tue 05:41:00 AM 49.5145 -12.3812 98° East  Level FlightAware Approximate
Tue 05:42:00 AM 49.4929 -12.1621 99° East  Level FlightAware Approximate
Tue 05:42:48 AM 49.2910 -9.5080 99° East 510 587 34,900  Level FlightAware ADS-B
Tue 05:43:00 AM 49.4710 -11.9433 99° East  Level FlightAware Approximate
Tue 05:43:27 AM 49.2740 -9.3910 103° East 510 587 34,900  Level FlightAware ADS-B
Tue 05:44:04 AM 49.2570 -9.2800 103° East 510 587 34,900  Level FlightAware ADS-B
Tue 05:44:39 AM 49.2230 -9.0700 104° East 509 586 34,900  Level FlightAware ADS-B
Tue 05:44:47 AM 49.2180 -9.0380 103° East 510 587 34,900  Level FlightAware ADS-B
Tue 05:45:32 AM 49.1913 -8.8762 103° East 496 571 34,900  Level FlightAware UK
Tue 05:45:44 AM 49.1850 -8.8360 103° East 509 586 34,900  Level FlightAware ADS-B
Tue 05:46:21 AM 49.1650 -8.7100 104° East 508 585 34,900  Level FlightAware ADS-B
Tue 05:46:57 AM 49.1450 -8.5910 104° East 508 585 34,900  Level FlightAware ADS-B
Tue 05:47:26 AM 49.1280 -8.4870 104° East 507 583 34,900  Level FlightAware ADS-B
Tue 05:47:32 AM 49.1233 -8.4572 104° East 496 571 34,900  Level FlightAware UK
Tue 05:48:02 AM 49.1061 -8.3530 104° East 494 568 34,900  Level FlightAware UK
Tue 05:48:12 AM 49.1020 -8.3270 104° East 509 586 34,900  Level FlightAware ADS-B
Tue 05:48:51 AM 49.0740 -8.2090 110° East 504 580 34,900  Level FlightAware ADS-B
Tue 05:49:27 AM 49.0360 -8.0790 114° Southeast 507 583 34,900  Level FlightAware ADS-B
Tue 05:49:56 AM 49.0080 -7.9850 114° Southeast 506 582 34,900  Level FlightAware ADS-B
Tue 05:50:32 AM 48.9721 -7.8623 114° Southeast 496 571 34,900  Level FlightAware UK
Tue 05:50:40 AM 48.9650 -7.8420 114° Southeast 506 582 34,900  Level FlightAware ADS-B
Tue 05:51:15 AM 48.9300 -7.7290 115° Southeast 507 583 34,900  Level FlightAware ADS-B
Tue 05:51:52 AM 48.8920 -7.6040 115° Southeast 506 582 34,900  Level FlightAware ADS-B
Tue 05:52:28 AM 48.8570 -7.4920 115° Southeast 505 581 34,900  Level FlightAware ADS-B
Tue 05:53:01 AM 48.8230 -7.3860 115° Southeast 505 581 34,900  Level FlightAware ADS-B
Tue 05:53:02 AM 48.8208 -7.3775 115° Southeast 494 568 34,900  Level FlightAware UK
Tue 05:53:32 AM 48.7904 -7.2812 115° Southeast 494 568 34,900  Level FlightAware UK
Tue 05:53:38 AM 48.7850 -7.2640 115° Southeast 505 581 34,900  Level FlightAware ADS-B
Tue 05:54:11 AM 48.7530 -7.1620 115° Southeast 505 581 34,900  Level FlightAware ADS-B
Tue 05:54:48 AM 48.7160 -7.0440 115° Southeast 505 581 34,900  Level FlightAware ADS-B
Tue 05:55:23 AM 48.6810 -6.9330 115° Southeast 505 581 34,900  Level FlightAware ADS-B
Tue 05:55:53 AM 48.6510 -6.8400 116° Southeast 505 581 34,900  Level FlightAware ADS-B
Tue 05:56:30 AM 48.6150 -6.7290 116° Southeast 502 578 34,900  Level FlightAware ADS-B
Tue 05:56:33 AM 48.6088 -6.7075 116° Southeast 494 568 34,900  Level FlightAware UK
Tue 05:57:03 AM 48.5778 -6.6117 116° Southeast 496 571 34,900  Level FlightAware UK
Tue 05:57:05 AM 48.5770 -6.6090 116° Southeast 502 578 34,900  Level FlightAware ADS-B
Tue 05:57:39 AM 48.5413 -6.4983 116° Southeast 494 568 34,900  Level FlightAware UK
Tue 05:57:40 AM 48.5420 -6.4980 116° Southeast 501 577 34,900  Level FlightAware ADS-B
Tue 05:58:16 AM 48.5070 -6.3940 117° Southeast 501 577 34,900  Level FlightAware ADS-B
Tue 05:58:50 AM 48.4690 -6.2770 116° Southeast 501 577 34,900  Level FlightAware ADS-B
Tue 05:59:22 AM 48.4370 -6.1790 116° Southeast 505 581 34,900  Level FlightAware ADS-B
Tue 05:59:58 AM 48.3980 -6.0590 116° Southeast 507 583 34,900  Level FlightAware ADS-B
Tue 06:00:09 AM 48.3864 -6.0243 116° Southeast 494 568 34,900  Level FlightAware UK
Tue 06:00:51 AM 48.3427 -5.8917 116° Southeast 494 568 34,900  Level FlightAware UK
Tue 06:00:55 AM 48.3500 -5.9140 116° Southeast 508 585 34,900  Level FlightAware ADS-B
Tue 06:01:27 AM 48.3049 -5.7772 116° Southeast 496 571 34,900  Level FlightAware UK
Tue 06:01:29 AM 48.3080 -5.7870 116° Southeast 510 587 34,900  Level FlightAware ADS-B
Tue 06:02:04 AM 48.2710 -5.6800 117° Southeast 511 588 34,900  Level FlightAware ADS-B
Tue 06:02:38 AM 48.2330 -5.5650 116° Southeast 512 589 34,900  Level FlightAware ADS-B
Tue 06:03:54 AM 48.1560 -5.3350 117° Southeast 509 586 34,900  Level FlightAware ADS-B
Tue 06:04:28 AM 48.1120 -5.2050 117° Southeast 512 589 34,900  Level FlightAware ADS-B
Tue 06:05:02 AM 48.0760 -5.1010 117° Southeast 512 589 34,900  Level FlightAware ADS-B
Tue 06:05:36 AM 48.0390 -4.9900 116° Southeast 513 590 34,900  Level FlightAware ADS-B
Tue 06:06:12 AM 48.0000 -4.8800 118° Southeast 513 590 34,900  Level FlightAware ADS-B
Tue 06:06:48 AM 47.9630 -4.7700 117° Southeast 514 592 34,900  Level FlightAware ADS-B
Tue 06:07:24 AM 47.9210 -4.6500 118° Southeast 515 593 34,900  Level FlightAware ADS-B
Tue 06:07:56 AM 47.8860 -4.5530 118° Southeast 515 593 34,900  Level FlightAware ADS-B
Tue 06:08:32 AM 47.8470 -4.4360 116° Southeast 516 594 34,900  Level FlightAware ADS-B
Tue 06:09:08 AM 47.8070 -4.3230 118° Southeast 517 595 34,900  Level FlightAware ADS-B
Tue 06:09:44 AM 47.7670 -4.2120 118° Southeast 518 596 34,900  Level FlightAware ADS-B
Tue 06:10:14 AM 47.7340 -4.1180 118° Southeast 520 598 34,900  Level FlightAware ADS-B
Tue 06:10:54 AM 47.6890 -3.9880 117° Southeast 519 597 34,900  Level FlightAware ADS-B
Tue 06:11:28 AM 47.6510 -3.8840 118° Southeast 520 598 34,900  Level FlightAware ADS-B
Tue 06:11:57 AM 47.6230 -3.8060 118° Southeast 519 597 34,900  Level FlightAware ADS-B
Tue 06:12:36 AM 47.5750 -3.6710 118° Southeast 519 597 34,900  Level FlightAware ADS-B
Tue 06:13:14 AM 47.5320 -3.5510 118° Southeast 521 600 34,900  Level FlightAware ADS-B
Tue 06:13:46 AM 47.4970 -3.4500 117° Southeast 521 600 34,900  Level FlightAware ADS-B
Tue 06:14:23 AM 47.4560 -3.3330 117° Southeast 523 602 34,900  Level FlightAware ADS-B
Tue 06:14:58 AM 47.4160 -3.2220 118° Southeast 523 602 34,900  Level FlightAware ADS-B
Tue 06:15:30 AM 47.3800 -3.1210 118° Southeast 522 601 34,900  Level FlightAware ADS-B
Tue 06:16:08 AM 47.3370 -2.9990 117° Southeast 521 600 34,900  Level FlightAware ADS-B
Tue 06:16:40 AM 47.3010 -2.9020 119° Southeast 519 597 34,900  Level FlightAware ADS-B
Tue 06:17:16 AM 47.2600 -2.7900 118° Southeast 519 597 34,900  Level FlightAware ADS-B
Tue 06:17:53 AM 47.2200 -2.6780 118° Southeast 518 596 34,900  Level FlightAware ADS-B
Tue 06:18:24 AM 47.1840 -2.5780 118° Southeast 517 595 34,900  Level FlightAware ADS-B
Tue 06:19:00 AM 47.1420 -2.4640 118° Southeast 516 594 34,900  Level FlightAware ADS-B
Tue 06:19:38 AM 47.1010 -2.3560 119° Southeast 516 594 34,900  Level FlightAware ADS-B
Tue 06:19:53 AM 47.0850 -2.3100 117° Southeast 517 595 34,900  Level FlightAware ADS-B
Tue 06:19:58 AM 47.0770 -2.2890 119° Southeast 517 595 34,900  Level FlightAware ADS-B
Tue 06:21:15 AM 47.0020 -2.0880 119° Southeast 519 597 34,900  Level FlightAware ADS-B
Tue 06:21:57 AM 46.9400 -1.9220 119° Southeast 519 597 34,900  Level FlightAware ADS-B
Tue 06:22:33 AM 46.8980 -1.8080 118° Southeast 520 598 34,900  Level FlightAware ADS-B
Tue 06:23:09 AM 46.8570 -1.7000 119° Southeast 520 598 34,900  Level FlightAware ADS-B
Tue 06:24:08 AM 46.8030 -1.5560 119° Southeast 520 598 34,900  Level FlightAware ADS-B
Tue 06:24:45 AM 46.7440 -1.4020 119° Southeast 521 600 34,900  Level FlightAware ADS-B
Tue 06:25:21 AM 46.7020 -1.2950 120° Southeast 521 600 34,900  Level FlightAware ADS-B
Tue 06:25:57 AM 46.6590 -1.1820 119° Southeast 521 600 34,900  Level FlightAware ADS-B
Tue 06:26:29 AM 46.6220 -1.0840 119° Southeast 521 600 34,900  Level FlightAware ADS-B
Tue 06:27:09 AM 46.5780 -0.9600 117° Southeast 528 608 34,900  Level FlightAware ADS-B
Tue 06:27:43 AM 46.5580 -0.8410 104° East 534 615 34,900  Level FlightAware ADS-B
Tue 06:28:21 AM 46.5400 -0.7220 102° East 534 615 34,900  Level FlightAware ADS-B
Tue 06:29:02 AM 46.5190 -0.5890 103° East 535 616 34,900  Level FlightAware ADS-B
Tue 06:29:38 AM 46.5010 -0.4520 101° East 537 618 34,900  Level FlightAware ADS-B
Tue 06:30:13 AM 46.4830 -0.3180 101° East 537 618 34,900  Level FlightAware ADS-B
Tue 06:30:43 AM 46.4690 -0.2190 102° East 537 618 34,900  Level FlightAware ADS-B
Tue 06:31:23 AM 46.4500 -0.0860 102° East 535 616 34,900 78 Level FlightAware ADS-B
Tue 06:32:00 AM 46.4330 0.0340 102° East 535 616 35,000 806 Climbing FlightAware ADS-B
Tue 06:32:30 AM 46.4170 0.1450 102° East 532 612 35,800 831 Climbing FlightAware ADS-B
Tue 06:33:05 AM 46.4000 0.2670 101° East 528 608 35,900 80 Climbing FlightAware ADS-B
Tue 06:33:45 AM 46.3800 0.4040 102° East 523 602 35,900  Level FlightAware ADS-B
Tue 06:34:27 AM 46.3610 0.5590 100° East 527 606 35,900  Level FlightAware ADS-B
Tue 06:35:01 AM 46.3570 0.6820 93° East 527 606 35,900  Level FlightAware ADS-B
Tue 06:35:36 AM 46.3540 0.7910 92° East 525 604 35,900  Level FlightAware ADS-B
Tue 06:36:11 AM 46.3500 0.9240 92° East 525 604 35,900 86 Level FlightAware ADS-B
Tue 06:36:46 AM 46.3470 1.0470 92° East 527 606 36,000  Climbing FlightAware ADS-B
Tue 06:37:23 AM 46.3430 1.1810 92° East 528 608 35,900 -71 Descending FlightAware ADS-B
Tue 06:38:10 AM 46.3380 1.3360 93° East 527 606 35,900  Level FlightAware ADS-B
Tue 06:38:45 AM 46.3330 1.4510 94° East 526 605 35,900  Level FlightAware ADS-B
Tue 06:39:20 AM 46.3180 1.5640 101° East 523 602 35,900  Level FlightAware ADS-B
Tue 06:39:53 AM 46.2880 1.6950 108° East 515 593 35,900 85 Level FlightAware ADS-B
Tue 06:40:31 AM 46.2730 1.7530 110° East 516 594 36,000 716 Climbing FlightAware ADS-B
Tue 06:41:00 AM 46.2380 1.8890 110° East 517 595 36,700 730 Climbing FlightAware ADS-B
Tue 06:41:45 AM 46.1950 2.0560 110° East 515 593 36,900 156 Climbing FlightAware ADS-B
Tue 06:42:17 AM 46.1670 2.1620 111° Southeast 513 590 36,900  Level FlightAware ADS-B
Tue 06:42:56 AM 46.1390 2.2720 110° East 512 589 36,900  Level FlightAware ADS-B
Tue 06:43:25 AM 46.1100 2.3780 112° Southeast 512 589 36,900  Level FlightAware ADS-B
Tue 06:44:03 AM 46.0790 2.5030 110° East 511 588 36,900  Level FlightAware ADS-B
Tue 06:44:37 AM 46.0530 2.6020 111° Southeast 510 587 36,900  Level FlightAware ADS-B
Tue 06:45:11 AM 46.0240 2.7170 110° East 511 588 36,900  Level FlightAware ADS-B
Tue 06:45:45 AM 45.9920 2.8180 114° Southeast 505 581 36,900  Level FlightAware ADS-B
Tue 06:46:21 AM 45.9430 2.9180 125° Southeast 495 570 36,900  Level FlightAware ADS-B
Tue 06:47:05 AM 45.8810 3.0320 128° Southeast 494 568 36,900  Level FlightAware ADS-B
Tue 06:47:39 AM 45.8330 3.1190 128° Southeast 495 570 36,900 87 Level FlightAware ADS-B
Tue 06:48:14 AM 45.7850 3.2070 128° Southeast 496 571 37,000  Climbing FlightAware ADS-B
Tue 06:48:49 AM 45.7330 3.3000 129° Southeast 496 571 36,900 -85 Descending FlightAware ADS-B
Tue 06:49:25 AM 45.6820 3.3920 128° Southeast 496 571 36,900  Level FlightAware ADS-B
Tue 06:49:57 AM 45.6350 3.4770 128° Southeast 497 572 36,900  Level FlightAware ADS-B
Tue 06:50:33 AM 45.5870 3.5640 128° Southeast 497 572 36,900  Level FlightAware ADS-B
Tue 06:51:11 AM 45.5300 3.6640 129° Southeast 497 572 36,900  Level FlightAware ADS-B
Tue 06:51:41 AM 45.4860 3.7440 128° Southeast 498 573 36,900  Level FlightAware ADS-B
Tue 06:52:17 AM 45.4360 3.8330 129° Southeast 499 574 36,900  Level FlightAware ADS-B
Tue 06:52:52 AM 45.3850 3.9230 129° Southeast 498 573 36,900  Level FlightAware ADS-B
Tue 06:53:27 AM 45.3330 4.0140 129° Southeast 496 571 36,900  Level FlightAware ADS-B
Tue 06:54:03 AM 45.2830 4.1030 129° Southeast 495 570 36,900  Level FlightAware ADS-B
Tue 06:54:39 AM 45.2310 4.1930 129° Southeast 493 567 36,900  Level FlightAware ADS-B
Tue 06:55:17 AM 45.1760 4.2910 129° Southeast 491 565 36,900  Level FlightAware ADS-B
Tue 06:55:51 AM 45.1280 4.3730 130° Southeast 491 565 36,900  Level FlightAware ADS-B
Tue 06:56:27 AM 45.0750 4.4620 130° Southeast 489 563 36,900  Level FlightAware ADS-B
Tue 06:56:59 AM 45.0280 4.5430 129° Southeast 487 560 36,900  Level FlightAware ADS-B
Tue 06:57:33 AM 44.9810 4.6230 130° Southeast 485 558 36,900  Level FlightAware ADS-B
Tue 06:58:09 AM 44.9290 4.7100 130° Southeast 484 557 36,900  Level FlightAware ADS-B
Tue 06:58:45 AM 44.8770 4.7980 130° Southeast 483 556 36,900  Level FlightAware ADS-B
Tue 06:59:17 AM 44.8310 4.8740 130° Southeast 481 554 36,900  Level FlightAware ADS-B
Tue 06:59:53 AM 44.7800 4.9650 128° Southeast 484 557 36,900 82 Level FlightAware ADS-B
Tue 07:00:30 AM 44.7510 5.0240 125° Southeast 485 558 37,000  Climbing FlightAware ADS-B
Tue 07:01:14 AM 44.6760 5.1700 126° Southeast 486 559 36,900 -87 Descending FlightAware ADS-B
Tue 07:01:39 AM 44.6420 5.2340 127° Southeast 485 558 36,900  Level FlightAware ADS-B
Tue 07:02:18 AM 44.5910 5.3330 126° Southeast 486 559 36,900  Level FlightAware ADS-B
Tue 07:02:51 AM 44.5470 5.4170 126° Southeast 486 559 36,900  Level FlightAware ADS-B
Tue 07:03:36 AM 44.5020 5.5000 127° Southeast 487 560 36,900  Level FlightAware ADS-B
Tue 07:04:15 AM 44.4350 5.6260 127° Southeast 490 564 36,900  Level FlightAware ADS-B
Tue 07:04:50 AM 44.3880 5.7160 126° Southeast 492 566 36,900  Level FlightAware ADS-B
Tue 07:05:24 AM 44.3400 5.8060 127° Southeast 494 568 36,900 87 Level FlightAware ADS-B
Tue 07:05:59 AM 44.2960 5.8880 127° Southeast 497 572 37,000  Climbing FlightAware ADS-B
Tue 07:06:31 AM 44.2480 5.9790 126° Southeast 501 577 36,900 -86 Descending FlightAware ADS-B
Tue 07:07:09 AM 44.1960 6.0770 126° Southeast 502 578 36,900  Level FlightAware ADS-B
Tue 07:07:47 AM 44.1460 6.1830 123° Southeast 508 585 36,900  Level FlightAware ADS-B
Tue 07:08:23 AM 44.1040 6.2780 122° Southeast 509 586 36,900  Level FlightAware ADS-B
Tue 07:08:55 AM 44.0630 6.3700 122° Southeast 509 586 36,900  Level FlightAware ADS-B
Tue 07:09:31 AM 44.0170 6.4720 122° Southeast 510 587 36,900  Level FlightAware ADS-B
Tue 07:10:07 AM 43.9710 6.5710 123° Southeast 510 587 36,900  Level FlightAware ADS-B
Tue 07:10:43 AM 43.9260 6.6670 123° Southeast 510 587 36,900  Level FlightAware ADS-B
Tue 07:11:21 AM 43.8820 6.7580 124° Southeast 512 589 36,900  Level FlightAware ADS-B
Tue 07:11:55 AM 43.8350 6.8600 123° Southeast 513 590 36,900  Level FlightAware ADS-B
Tue 07:12:31 AM 43.7860 6.9650 123° Southeast 514 592 36,900  Level FlightAware ADS-B
Tue 07:13:05 AM 43.7440 7.0560 123° Southeast 516 594 36,900  Level FlightAware ADS-B
Tue 07:13:41 AM 43.6970 7.1560 123° Southeast 517 595 36,900  Level FlightAware ADS-B
Tue 07:14:15 AM 43.6550 7.2450 123° Southeast 518 596 36,900  Level FlightAware ADS-B
Tue 07:14:49 AM 43.6080 7.3450 123° Southeast 518 596 36,900  Level FlightAware ADS-B
Tue 07:15:29 AM 43.5550 7.4590 123° Southeast 520 598 36,900 86 Level FlightAware ADS-B
Tue 07:15:59 AM 43.5180 7.5400 122° Southeast 521 600 37,000  Climbing FlightAware ADS-B
Tue 07:16:37 AM 43.4670 7.6450 124° Southeast 521 600 36,900  Descending FlightAware ADS-B
Tue 07:17:15 AM 43.4160 7.7540 123° Southeast 522 601 37,000  Climbing FlightAware ADS-B
Tue 07:17:47 AM 43.3730 7.8430 124° Southeast 523 602 36,900 -87 Descending FlightAware ADS-B
Tue 07:18:24 AM 43.3240 7.9480 123° Southeast 523 602 36,900  Level FlightAware ADS-B
Tue 07:18:59 AM 43.2770 8.0420 124° Southeast 525 604 36,900  Level FlightAware ADS-B
Tue 07:19:31 AM 43.2340 8.1340 123° Southeast 525 604 36,900  Level FlightAware ADS-B
Tue 07:20:00 AM 43.1960 8.2120 124° Southeast 526 605 36,900  Level FlightAware ADS-B
Tue 07:21:06 AM 43.1070 8.3950 124° Southeast 528 608 36,900  Level FlightAware ADS-B
Tue 07:21:38 AM 43.0640 8.4840 123° Southeast 529 609 36,900  Level FlightAware ADS-B
Tue 07:22:19 AM 43.0090 8.5960 124° Southeast 530 610 36,900  Level FlightAware ADS-B
Tue 07:22:56 AM 42.9570 8.7040 123° Southeast 532 612 36,900  Level FlightAware ADS-B
Tue 07:24:13 AM 42.8540 8.9140 124° Southeast 533 613 36,900  Level FlightAware ADS-B
Tue 07:24:48 AM 42.8040 9.0140 124° Southeast 533 613 36,900  Level FlightAware ADS-B
Tue 07:25:24 AM 42.7540 9.1140 124° Southeast 533 613 36,900  Level FlightAware ADS-B
Tue 07:26:00 AM 42.7040 9.2140 124° Southeast 533 613 36,900 88 Level FlightAware ADS-B
Tue 07:26:32 AM 42.6590 9.3020 125° Southeast 534 615 37,000  Climbing FlightAware ADS-B
Tue 07:27:08 AM 42.6110 9.3990 124° Southeast 534 615 36,900 -86 Descending FlightAware ADS-B
Tue 07:27:42 AM 42.5680 9.5020 120° Southeast 539 620 36,900  Level FlightAware ADS-B
Tue 07:28:16 AM 42.5370 9.6090 111° Southeast 545 627 36,900 88 Level FlightAware ADS-B
Tue 07:28:50 AM 42.5090 9.7190 109° East 545 627 37,000  Climbing FlightAware ADS-B
Tue 07:29:28 AM 42.4750 9.8400 111° Southeast 545 627 36,900 -81 Descending FlightAware ADS-B
Tue 07:30:04 AM 42.4270 9.9460 122° Southeast 537 618 36,900  Level FlightAware ADS-B
Tue 07:30:37 AM 42.3820 10.0380 123° Southeast 538 619 36,900  Level FlightAware ADS-B
Tue 07:31:14 AM 42.3330 10.1410 123° Southeast 540 621 36,900  Level FlightAware ADS-B
Tue 07:31:50 AM 42.2880 10.2410 121° Southeast 541 623 36,900  Level FlightAware ADS-B
Tue 07:32:21 AM 42.2450 10.3370 121° Southeast 542 624 36,900  Level FlightAware ADS-B
Tue 07:32:57 AM 42.1950 10.4380 124° Southeast 541 623 36,900  Level FlightAware ADS-B
Tue 07:33:33 AM 42.1460 10.5390 123° Southeast 541 623 36,900  Level FlightAware ADS-B
Tue 07:34:10 AM 42.0950 10.6400 124° Southeast 541 623 36,900  Level FlightAware ADS-B
Tue 07:34:41 AM 42.0530 10.7270 123° Southeast 541 623 36,900  Level FlightAware ADS-B
Tue 07:35:15 AM 42.0040 10.8250 124° Southeast 541 623 36,900  Level FlightAware ADS-B
Tue 07:35:53 AM 41.9530 10.9290 123° Southeast 541 623 36,900  Level FlightAware ADS-B
Tue 07:36:25 AM 41.9090 11.0180 124° Southeast 540 621 36,900  Level FlightAware ADS-B
Tue 07:37:03 AM 41.8560 11.1240 124° Southeast 540 621 36,900 83 Level FlightAware ADS-B
Tue 07:37:37 AM 41.8080 11.2220 123° Southeast 540 621 37,000  Climbing FlightAware ADS-B
Tue 07:38:13 AM 41.7570 11.3220 124° Southeast 540 621 36,900  Descending FlightAware ADS-B
Tue 07:38:50 AM 41.7070 11.4210 124° Southeast 538 619 37,000  Climbing FlightAware ADS-B
Tue 07:39:21 AM 41.6640 11.5070 124° Southeast 538 619 36,900 -94 Descending FlightAware ADS-B
Tue 07:39:54 AM 41.6170 11.5970 125° Southeast 537 618 36,900  Level FlightAware ADS-B
Tue 07:40:46 AM 41.5540 11.7230 124° Southeast 536 617 36,900  Level FlightAware ADS-B
Tue 07:41:25 AM 41.4900 11.8460 125° Southeast 536 617 36,900  Level FlightAware ADS-B
Tue 07:42:01 AM 41.4400 11.9470 123° Southeast 535 616 36,900  Level FlightAware ADS-B
Tue 07:42:57 AM 41.3780 12.0660 125° Southeast 534 615 36,900 67 Level FlightAware ADS-B
Tue 07:43:30 AM 41.3160 12.1850 125° Southeast 533 613 37,000  Climbing FlightAware ADS-B
Tue 07:44:06 AM 41.2650 12.2850 124° Southeast 534 615 36,900 -91 Descending FlightAware ADS-B
Tue 07:44:36 AM 41.2240 12.3640 125° Southeast 534 615 36,900  Level FlightAware ADS-B
Tue 07:45:25 AM 41.1550 12.4960 125° Southeast 535 616 36,900  Level FlightAware ADS-B
Tue 07:45:57 AM 41.1100 12.5790 126° Southeast 536 617 36,900  Level FlightAware ADS-B
Tue 07:46:31 AM 41.0600 12.6770 124° Southeast 536 617 36,900  Level FlightAware ADS-B
Tue 07:47:06 AM 41.0160 12.7730 121° Southeast 538 619 36,900  Level FlightAware ADS-B
Tue 07:47:53 AM 40.9570 12.9060 120° Southeast 538 619 36,900  Level FlightAware ADS-B
Tue 07:48:25 AM 40.9160 12.9960 121° Southeast 538 619 36,900  Level FlightAware ADS-B
Tue 07:49:00 AM 40.8730 13.0960 120° Southeast 538 619 36,900  Level FlightAware ADS-B
Tue 07:49:35 AM 40.8290 13.1950 120° Southeast 538 619 36,900  Level FlightAware ADS-B
Tue 07:50:07 AM 40.7890 13.2860 120° Southeast 538 619 36,900 85 Level FlightAware ADS-B
Tue 07:50:46 AM 40.7400 13.3960 120° Southeast 537 618 37,000  Climbing FlightAware ADS-B
Tue 07:51:22 AM 40.6950 13.4950 121° Southeast 537 618 36,900  Descending FlightAware ADS-B
Tue 07:51:58 AM 40.6490 13.5990 120° Southeast 537 618 37,000  Climbing FlightAware ADS-B
Tue 07:52:30 AM 40.6090 13.6890 120° Southeast 538 619 36,900  Descending FlightAware ADS-B
Tue 07:53:06 AM 40.5620 13.7910 121° Southeast 538 619 37,000  Climbing FlightAware ADS-B
Tue 07:53:42 AM 40.5160 13.8920 121° Southeast 539 620 36,900 -83 Descending FlightAware ADS-B
Tue 07:54:18 AM 40.4690 13.9960 121° Southeast 539 620 36,900  Level FlightAware ADS-B
Tue 07:54:50 AM 40.4290 14.0830 121° Southeast 540 621 36,900  Level FlightAware ADS-B
Tue 07:55:26 AM 40.3830 14.1840 121° Southeast 540 621 36,900  Level FlightAware ADS-B
Tue 07:56:04 AM 40.3340 14.2910 121° Southeast 540 621 36,900  Level FlightAware ADS-B
Tue 07:56:36 AM 40.2930 14.3810 121° Southeast 540 621 36,900  Level FlightAware ADS-B
Tue 07:57:12 AM 40.2460 14.4840 121° Southeast 539 620 36,900  Level FlightAware ADS-B
Tue 07:57:48 AM 40.2000 14.5850 121° Southeast 538 619 36,900  Level FlightAware ADS-B
Tue 07:58:24 AM 40.1550 14.6790 122° Southeast 538 619 36,900  Level FlightAware ADS-B
Tue 07:58:56 AM 40.1130 14.7710 121° Southeast 538 619 36,900 88 Level FlightAware ADS-B
Tue 07:59:32 AM 40.0660 14.8710 122° Southeast 539 620 37,000  Climbing FlightAware ADS-B
Tue 07:59:56 AM 40.0340 14.9400 121° Southeast 539 620 36,900 -88 Descending FlightAware ADS-B
Tue 08:00:40 AM 39.9970 15.0210 121° Southeast 534 615 36,900  Level FlightAware ADS-B
Tue 08:01:19 AM 39.9300 15.1620 122° Southeast 534 615 36,900  Level FlightAware ADS-B
Tue 08:02:03 AM 39.8700 15.2890 122° Southeast 535 616 36,900 71 Level FlightAware ADS-B
Tue 08:02:44 AM 39.8180 15.4000 121° Southeast 535 616 37,000  Climbing FlightAware ADS-B
Tue 08:03:09 AM 39.7840 15.4710 122° Southeast 535 616 36,900 -63 Descending FlightAware ADS-B
Tue 08:04:20 AM 39.6890 15.6690 122° Southeast 538 619 36,900  Level FlightAware ADS-B
Tue 08:04:59 AM 39.6400 15.7700 122° Southeast 538 619 36,900  Level FlightAware ADS-B
Tue 08:05:32 AM 39.5950 15.8630 122° Southeast 537 618 36,900  Level FlightAware ADS-B
Tue 08:06:05 AM 39.5560 15.9560 119° Southeast 538 619 36,900  Level FlightAware ADS-B
Tue 08:06:44 AM 39.5150 16.0740 114° Southeast 539 620 36,900  Level FlightAware ADS-B
Tue 08:07:16 AM 39.4850 16.1670 113° Southeast 539 620 36,900  Level FlightAware ADS-B
Tue 08:07:52 AM 39.4510 16.2770 112° Southeast 538 619 36,900  Level FlightAware ADS-B
Tue 08:08:26 AM 39.4180 16.3770 113° Southeast 537 618 36,900  Level FlightAware ADS-B
Tue 08:09:04 AM 39.3810 16.4900 113° Southeast 537 618 36,900  Level FlightAware ADS-B
Tue 08:09:38 AM 39.3480 16.5900 113° Southeast 537 618 36,900  Level FlightAware ADS-B
Tue 08:10:14 AM 39.3130 16.6930 114° Southeast 537 618 36,900 88 Level FlightAware ADS-B
Tue 08:10:46 AM 39.2820 16.7870 113° Southeast 537 618 37,000  Climbing FlightAware ADS-B
Tue 08:11:22 AM 39.2460 16.8960 113° Southeast 537 618 36,900  Descending FlightAware ADS-B
Tue 08:11:55 AM 39.2180 16.9780 114° Southeast 536 617 37,000  Climbing FlightAware ADS-B
Tue 08:12:34 AM 39.1760 17.1040 113° Southeast 535 616 36,900 -80 Descending FlightAware ADS-B
Tue 08:13:10 AM 39.1410 17.2100 113° Southeast 535 616 36,900  Level FlightAware ADS-B
Tue 08:13:42 AM 39.1080 17.3060 114° Southeast 535 616 36,900  Level FlightAware ADS-B
Tue 08:14:18 AM 39.0730 17.4110 113° Southeast 536 617 36,900 83 Level FlightAware ADS-B
Tue 08:14:54 AM 39.0370 17.5160 114° Southeast 537 618 37,000  Climbing FlightAware ADS-B
Tue 08:15:33 AM 38.9990 17.6280 114° Southeast 538 619 36,900  Descending FlightAware ADS-B
Tue 08:16:11 AM 38.9610 17.7390 114° Southeast 538 619 37,000  Climbing FlightAware ADS-B
Tue 08:16:45 AM 38.9270 17.8380 114° Southeast 538 619 36,900  Descending FlightAware ADS-B
Tue 08:17:21 AM 38.8900 17.9460 114° Southeast 539 620 37,000 88 Climbing FlightAware ADS-B
Tue 08:17:53 AM 38.8570 18.0400 114° Southeast 540 621 37,000 -86 Level FlightAware ADS-B
Tue 08:18:31 AM 38.8190 18.1480 114° Southeast 540 621 36,900  Descending FlightAware ADS-B
Tue 08:19:07 AM 38.7810 18.2560 114° Southeast 539 620 37,000 88 Climbing FlightAware ADS-B
Tue 08:19:39 AM 38.7490 18.3490 114° Southeast 539 620 37,000 -115 Level FlightAware ADS-B
Tue 08:19:59 AM 38.7290 18.4070 114° Southeast 539 620 36,900 -39 Descending FlightAware ADS-B
Tue 08:22:11 AM 38.6150 18.7340 114° Southeast 539 620 36,900  Level FlightAware ADS-B
Tue 08:22:53 AM 38.5840 18.8180 115° Southeast 536 617 36,900  Level FlightAware ADS-B
Tue 08:23:25 AM 38.5390 18.9420 115° Southeast 535 616 36,900  Level FlightAware ADS-B
Tue 08:24:09 AM 38.5060 19.0420 113° Southeast 535 616 36,900  Level FlightAware ADS-B
Tue 08:24:47 AM 38.4740 19.1360 113° Southeast 535 616 36,900 64 Level FlightAware ADS-B
Tue 08:25:43 AM 38.4190 19.3780 106° East 535 616 37,000  Climbing FlightAware ADS-B
Tue 08:26:22 AM 38.3880 19.4970 108° East 535 616 36,900  Descending FlightAware ADS-B
Tue 08:27:01 AM 38.3570 19.6070 110° East 533 613 37,000 85 Climbing FlightAware ADS-B
Tue 08:27:33 AM 38.3300 19.7110 108° East 533 613 37,000  Level FlightAware ADS-B
Tue 08:28:10 AM 38.3030 19.8120 109° East 532 612 37,000  Level FlightAware ADS-B
Tue 08:28:51 AM 38.2760 19.9120 109° East 532 612 37,000  Level FlightAware ADS-B
Tue 08:29:34 AM 38.2460 20.0220 109° East 533 613 37,000 -82 Level FlightAware ADS-B
Tue 08:30:04 AM 38.2200 20.1130 110° East 533 613 36,900 -91 Descending FlightAware ADS-B
Tue 08:30:40 AM 38.1990 20.1930 108° East 533 613 36,900  Level FlightAware ADS-B
Tue 08:31:15 AM 38.1750 20.2810 109° East 533 613 36,900  Level FlightAware ADS-B
Tue 08:31:52 AM 38.1500 20.3740 109° East 533 613 36,900  Level FlightAware ADS-B
Tue 08:32:28 AM 38.1250 20.4650 109° East 533 613 36,900  Level FlightAware ADS-B
Tue 08:33:04 AM 38.1000 20.5560 109° East 533 613 36,900  Level FlightAware ADS-B
Tue 08:33:40 AM 38.0760 20.6460 109° East 533 613 36,900 87 Level FlightAware ADS-B
Tue 08:34:13 AM 37.9650 20.8960 119° Southeast 532 612 37,000 79 Climbing FlightAware ADS-B
Tue 08:34:56 AM 37.9250 21.0040 115° Southeast 532 612 37,000  Level FlightAware ADS-B
Tue 08:35:32 AM 37.8940 21.0910 114° Southeast 532 612 37,000  Level FlightAware ADS-B
Tue 08:36:12 AM 37.8370 21.2300 117° Southeast 532 612 37,000 -80 Level FlightAware ADS-B
Tue 08:36:47 AM 37.8040 21.3200 115° Southeast 532 612 36,900 -85 Descending FlightAware ADS-B
Tue 08:37:23 AM 37.7720 21.4060 115° Southeast 532 612 36,900  Level FlightAware ADS-B
Tue 08:37:59 AM 37.7400 21.4930 115° Southeast 532 612 36,900  Level FlightAware ADS-B
Tue 08:38:35 AM 37.7080 21.5790 115° Southeast 532 612 36,900 75 Level FlightAware ADS-B
Tue 08:39:19 AM 37.6430 21.7380 117° Southeast 531 611 37,000 74 Climbing FlightAware ADS-B
Tue 08:39:56 AM 37.6030 21.8360 117° Southeast 531 611 37,000  Level FlightAware ADS-B
Tue 08:41:48 AM 37.5040 22.1030 115° Southeast 531 611 37,000  Level FlightAware ADS-B
Tue 08:42:18 AM 37.4780 22.1750 114° Southeast 531 611 37,000 -72 Level FlightAware ADS-B
Tue 08:43:11 AM 37.3990 22.3580 118° Southeast 534 615 36,900  Descending FlightAware ADS-B
Tue 08:43:40 AM 37.3610 22.4850 111° Southeast 534 615 37,000  Climbing FlightAware ADS-B
Tue 08:44:05 AM 37.3390 22.5610 110° East 537 618 36,900 -66 Descending FlightAware ADS-B
Tue 08:45:11 AM 37.2810 22.7600 110° East 533 613 36,900  Level FlightAware ADS-B
Tue 08:45:47 AM 37.2540 22.8540 110° East 534 615 36,900  Level FlightAware ADS-B
Tue 08:46:20 AM 37.2250 22.9530 110° East 534 615 36,900  Level FlightAware ADS-B
Tue 08:47:00 AM 37.1870 23.0780 111° Southeast 536 617 36,900  Level FlightAware ADS-B
Tue 08:47:36 AM 37.1560 23.1860 110° East 536 617 36,900  Level FlightAware ADS-B
Tue 08:48:16 AM 37.1200 23.3020 111° Southeast 536 617 36,900  Level FlightAware ADS-B
Tue 08:48:52 AM 37.0890 23.4070 110° East 536 617 36,900  Level FlightAware ADS-B
Tue 08:49:24 AM 37.0620 23.4970 111° Southeast 535 616 36,900  Level FlightAware ADS-B
Tue 08:50:00 AM 37.0300 23.6040 111° Southeast 535 616 36,900  Level FlightAware ADS-B
Tue 08:50:32 AM 37.0020 23.6940 111° Southeast 534 615 36,900  Level FlightAware ADS-B
Tue 08:51:06 AM 36.9730 23.7890 111° Southeast 533 613 36,900  Level FlightAware ADS-B
Tue 08:51:36 AM 36.9450 23.8810 111° Southeast 533 613 36,900 88 Level FlightAware ADS-B
Tue 08:52:14 AM 36.9120 23.9880 111° Southeast 534 615 37,000  Climbing FlightAware ADS-B
Tue 08:52:50 AM 36.8810 24.0910 111° Southeast 534 615 36,900 -87 Descending FlightAware ADS-B
Tue 08:53:23 AM 36.8520 24.1860 111° Southeast 533 613 36,900  Level FlightAware ADS-B
Tue 08:53:58 AM 36.8200 24.2860 112° Southeast 533 613 36,900  Level FlightAware ADS-B
Tue 08:54:34 AM 36.7870 24.3920 111° Southeast 532 612 36,900  Level FlightAware ADS-B
Tue 08:55:06 AM 36.7590 24.4840 111° Southeast 533 613 36,900 83 Level FlightAware ADS-B
Tue 08:55:46 AM 36.7220 24.5940 113° Southeast 530 610 37,000  Climbing FlightAware ADS-B
Tue 08:56:18 AM 36.6890 24.6830 115° Southeast 529 609 36,900 -88 Descending FlightAware ADS-B
Tue 08:56:54 AM 36.6510 24.7850 115° Southeast 528 608 36,900  Level FlightAware ADS-B
Tue 08:57:30 AM 36.6150 24.8840 114° Southeast 528 608 36,900  Level FlightAware ADS-B
Tue 08:58:02 AM 36.5830 24.9700 115° Southeast 528 608 36,900 88 Level FlightAware ADS-B
Tue 08:58:38 AM 36.5470 25.0690 114° Southeast 529 609 37,000 83 Climbing FlightAware ADS-B
Tue 08:59:14 AM 36.5100 25.1720 114° Southeast 529 609 37,000  Level FlightAware ADS-B
Tue 08:59:50 AM 36.4730 25.2710 115° Southeast 530 610 37,000 -63 Level FlightAware ADS-B
Tue 09:00:50 AM 36.4200 25.4180 114° Southeast 530 610 36,900 -63 Descending FlightAware ADS-B
Tue 09:01:25 AM 36.3760 25.5320 116° Southeast 534 615 36,900  Level FlightAware ADS-B
Tue 09:01:56 AM 36.3430 25.6190 115° Southeast 535 616 36,900  Level FlightAware ADS-B
Tue 09:02:34 AM 36.3040 25.7240 115° Southeast 534 615 36,900  Level FlightAware ADS-B
Tue 09:03:10 AM 36.2660 25.8240 115° Southeast 533 613 36,900 88 Level FlightAware ADS-B
Tue 09:03:42 AM 36.2330 25.9130 115° Southeast 532 612 37,000  Climbing FlightAware ADS-B
Tue 09:04:20 AM 36.1930 26.0200 115° Southeast 530 610 36,900 -86 Descending FlightAware ADS-B
Tue 09:04:52 AM 36.1590 26.1080 116° Southeast 529 609 36,900  Level FlightAware ADS-B
Tue 09:05:30 AM 36.1200 26.2110 115° Southeast 528 608 36,900 81 Level FlightAware ADS-B
Tue 09:06:06 AM 36.0820 26.3100 115° Southeast 528 608 37,000 88 Climbing FlightAware ADS-B
Tue 09:06:38 AM 36.0490 26.3970 115° Southeast 529 609 37,000  Level FlightAware ADS-B
Tue 09:07:38 AM 35.9870 26.5580 115° Southeast 529 609 37,000 -65 Level FlightAware ADS-B
Tue 09:08:10 AM 35.9530 26.6450 116° Southeast 529 609 36,900 -94 Descending FlightAware ADS-B
Tue 09:08:42 AM 35.9190 26.7350 115° Southeast 529 609 36,900 83 Level FlightAware ADS-B
Tue 09:09:22 AM 35.8770 26.8410 116° Southeast 530 610 37,000  Climbing FlightAware ADS-B
Tue 09:10:03 AM 35.8370 26.9450 115° Southeast 530 610 36,900 -64 Descending FlightAware ADS-B
Tue 09:10:56 AM 35.7840 27.0820 115° Southeast 530 610 36,900  Level FlightAware ADS-B
Tue 09:11:40 AM 35.7380 27.1980 116° Southeast 527 606 36,900  Level FlightAware ADS-B
Tue 09:12:12 AM 35.6960 27.3040 116° Southeast 526 605 36,900  Level FlightAware ADS-B
Tue 09:12:48 AM 35.6580 27.3980 116° Southeast 525 604 36,900  Level FlightAware ADS-B
Tue 09:13:12 AM 35.6320 27.4630 116° Southeast 526 605 36,900  Level FlightAware ADS-B
Tue 09:13:47 AM 35.6020 27.5440 114° Southeast 526 605 36,900  Level FlightAware ADS-B
Tue 09:14:31 AM 35.5560 27.6590 116° Southeast 526 605 36,900  Level FlightAware ADS-B
Tue 09:15:07 AM 35.5250 27.7420 115° Southeast 526 605 36,900  Level FlightAware ADS-B
Tue 09:15:43 AM 35.4930 27.8250 115° Southeast 526 605 36,900  Level FlightAware ADS-B
Tue 09:16:19 AM 35.4620 27.9080 115° Southeast 526 605 36,900  Level FlightAware ADS-B
Tue 09:16:59 AM 35.3940 28.0630 118° Southeast 526 605 36,900  Level FlightAware ADS-B
Tue 09:17:34 AM 35.3480 28.1720 117° Southeast 528 608 36,900  Level FlightAware ADS-B
Tue 09:18:10 AM 35.3080 28.2710 116° Southeast 528 608 36,900  Level FlightAware ADS-B
Tue 09:18:42 AM 35.2730 28.3560 117° Southeast 527 606 36,900  Level FlightAware ADS-B
Tue 09:19:22 AM 35.2300 28.4600 117° Southeast 526 605 36,900  Level FlightAware ADS-B
Tue 09:20:09 AM 35.1800 28.5820 117° Southeast 524 603 36,900  Level FlightAware ADS-B
Tue 09:20:42 AM 35.1440 28.6690 117° Southeast 520 598 36,900 77 Level FlightAware ADS-B
Tue 09:21:27 AM 35.1050 28.7680 116° Southeast 519 597 37,000 73 Climbing FlightAware ADS-B
Tue 09:22:04 AM 35.0730 28.8520 115° Southeast 519 597 37,000  Level FlightAware ADS-B
Tue 09:22:42 AM 35.0170 28.9750 119° Southeast 513 590 37,000  Level FlightAware ADS-B
Tue 09:23:20 AM 34.9840 29.0590 116° Southeast 513 590 37,000  Level FlightAware ADS-B
Tue 09:24:08 AM 34.9410 29.1660 116° Southeast 513 590 37,000 -50 Level FlightAware ADS-B
Tue 09:24:42 AM 34.8850 29.2890 119° Southeast 36,900 -85 Descending FlightAware ADS-B
Tue 09:25:19 AM 34.8450 29.3850 117° Southeast 515 593 36,900  Level FlightAware ADS-B
Tue 09:25:50 AM 34.8090 29.4710 117° Southeast 519 597 36,900 95 Level FlightAware ADS-B
Tue 09:26:22 AM 34.7750 29.5520 117° Southeast 515 593 37,000  Climbing FlightAware ADS-B
Tue 09:27:02 AM 34.7290 29.6580 118° Southeast 515 593 36,900 -80 Descending FlightAware ADS-B
Tue 09:27:37 AM 34.6900 29.7500 117° Southeast 514 592 36,900  Level FlightAware ADS-B
Tue 09:28:12 AM 34.6530 29.8360 118° Southeast 513 590 36,900 83 Level FlightAware ADS-B
Tue 09:28:49 AM 34.6220 29.9130 116° Southeast 513 590 37,000  Climbing FlightAware ADS-B
Tue 09:29:25 AM 34.5810 30.0080 118° Southeast 513 590 36,900  Descending FlightAware ADS-B
Tue 09:29:51 AM 34.5440 30.0830 121° Southeast 513 590 37,000  Climbing FlightAware ADS-B
Tue 09:30:29 AM 34.4940 30.1880 120° Southeast 513 590 36,900 -82 Descending FlightAware ADS-B
Tue 09:31:04 AM 34.4540 30.2720 120° Southeast 513 590 36,900 80 Level FlightAware ADS-B
Tue 09:31:44 AM 34.4080 30.3660 121° Southeast 514 592 37,000  Climbing FlightAware ADS-B
Tue 09:32:15 AM 34.3690 30.4480 120° Southeast 514 592 36,900 -91 Descending FlightAware ADS-B
Tue 09:32:50 AM 34.3280 30.5330 120° Southeast 515 593 36,900 100 Level FlightAware ADS-B
Tue 09:33:15 AM 34.2970 30.5980 120° Southeast 516 594 37,000  Climbing FlightAware ADS-B
Tue 09:33:54 AM 34.2490 30.6950 121° Southeast 516 594 36,900 -86 Descending FlightAware ADS-B
Tue 09:34:25 AM 34.2130 30.7700 120° Southeast 515 593 36,900  Level FlightAware ADS-B
Tue 09:34:51 AM 34.1820 30.8340 120° Southeast 515 593 36,900  Level FlightAware ADS-B
Tue 09:35:30 AM 34.1330 30.9330 121° Southeast 514 592 36,900  Level FlightAware ADS-B
Tue 09:36:10 AM 34.0860 31.0320 120° Southeast 512 589 36,900  Level FlightAware ADS-B
Tue 09:36:40 AM 34.0490 31.1060 121° Southeast 512 589 36,900  Level FlightAware ADS-B
Tue 09:37:15 AM 34.0080 31.1890 121° Southeast 512 589 36,900  Level FlightAware ADS-B
Tue 09:37:55 AM 33.9570 31.2920 121° Southeast 512 589 36,900  Level FlightAware ADS-B
Tue 09:38:25 AM 33.9220 31.3630 121° Southeast 513 590 36,900 92 Level FlightAware ADS-B
Tue 09:39:00 AM 33.8790 31.4520 120° Southeast 513 590 37,000  Climbing FlightAware ADS-B
Tue 09:39:40 AM 33.8320 31.5470 121° Southeast 513 590 36,900 -86 Descending FlightAware ADS-B
Tue 09:40:10 AM 33.7950 31.6210 121° Southeast 513 590 36,900 86 Level FlightAware ADS-B
Tue 09:40:50 AM 33.7620 31.7310 110° East 515 593 37,000 80 Climbing FlightAware ADS-B
Tue 09:41:25 AM 33.7390 31.8270 106° East 517 595 37,000  Level FlightAware ADS-B
Tue 09:41:56 AM 33.7210 31.9020 106° East 517 595 37,000 -92 Level FlightAware ADS-B
Tue 09:42:30 AM 33.6960 32.0040 106° East 516 594 36,900  Descending FlightAware ADS-B
Tue 09:43:10 AM 33.6690 32.1130 107° East 516 594 37,000 75 Climbing FlightAware ADS-B
Tue 09:43:50 AM 33.6420 32.2290 106° East 516 594 37,000 -79 Level FlightAware ADS-B
Tue 09:44:26 AM 33.6190 32.3250 106° East 512 589 36,900 -85 Descending FlightAware ADS-B
Tue 09:45:01 AM 33.5950 32.4210 107° East 511 588 36,900  Level FlightAware ADS-B
Tue 09:45:36 AM 33.5720 32.5160 106° East 513 590 36,900  Level FlightAware ADS-B
Tue 09:46:11 AM 33.5490 32.6090 107° East 512 589 36,900  Level FlightAware ADS-B
Tue 09:46:42 AM 33.5280 32.6960 106° East 511 588 36,900 -636 Level FlightAware ADS-B
Tue 09:47:17 AM 33.5040 32.7900 107° East 508 585 36,200 -1,099 Descending FlightAware ADS-B
Tue 09:47:53 AM 33.4780 32.8840 108° East 502 578 35,600 -1,029 Descending FlightAware ADS-B
Tue 09:48:27 AM 33.4350 32.9640 123° Southeast 494 568 35,000 -1,029 Descending FlightAware ADS-B
Tue 09:49:03 AM 33.3790 33.0360 133° Southeast 493 567 34,400 -1,026 Descending FlightAware ADS-B
Tue 09:49:43 AM 33.3160 33.1170 133° Southeast 481 554 33,700 -1,183 Descending FlightAware ADS-B
Tue 09:50:14 AM 33.2720 33.1780 131° Southeast 474 545 33,000 -800 Descending FlightAware ADS-B
Tue 09:50:43 AM 33.2470 33.2430 115° Southeast 456 525 32,900  Descending FlightAware ADS-B
Tue 09:51:18 AM 33.2390 33.3320 96° East 445 512 33,000 -316 Climbing FlightAware ADS-B
Tue 09:51:59 AM 33.2380 33.4340 91° East 436 502 32,500 -1,169 Descending FlightAware ADS-B
Tue 09:52:35 AM 33.2360 33.5170 92° East 429 494 31,500 -1,352 Descending FlightAware ADS-B
Tue 09:53:10 AM 33.2330 33.5990 92° East 429 494 30,900 -429 Descending FlightAware ADS-B
Tue 09:53:45 AM 33.2300 33.6830 92° East 432 497 31,000 87 Climbing FlightAware ADS-B
Tue 09:54:19 AM 33.2270 33.7680 92° East 429 494 31,000 -281 Level FlightAware ADS-B
Tue 09:54:49 AM 33.2250 33.8370 92° East 423 487 30,700 -1,886 Descending FlightAware ADS-B
Tue 09:55:29 AM 33.2230 33.9290 91° East 412 474 28,800 -2,923 Descending FlightAware ADS-B
Tue 09:56:07 AM 33.2110 34.0110 100° East 397 457 26,900 -3,412 Descending FlightAware ADS-B
Tue 09:56:20 AM 33.1970 34.0370 123° Southeast 402 463 25,900 -3,188 Descending FlightAware ADS-B
Tue 09:56:39 AM 33.1720 34.0620 140° Southeast 392 451 25,200 -2,100 Descending FlightAware ADS-B
Tue 09:57:00 AM 33.1340 34.0780 161° South 381 438 24,500 -1,552 Descending FlightAware ADS-B
Tue 09:57:37 AM 33.0720 34.0870 173° South 365 420 23,700 -1,437 Descending FlightAware ADS-B
Tue 09:58:11 AM 33.0170 34.0930 175° South 358 412 22,800 -1,457 Descending FlightAware ADS-B
Tue 09:58:47 AM 32.9570 34.1000 174° South 336 387 22,000 -1,565 Descending FlightAware ADS-B
Tue 09:59:20 AM 32.9070 34.1060 174° South 325 374 21,000 -2,028 Descending FlightAware ADS-B
Tue 09:59:58 AM 32.8510 34.1140 173° South 322 371 19,600 -2,226 Descending FlightAware ADS-B
Tue 10:00:22 AM 32.8180 34.1180 174° South 318 366 18,700 -2,400 Descending FlightAware ADS-B
Tue 10:00:58 AM 32.7630 34.1260 173° South 313 360 17,200 -2,384 Descending FlightAware ADS-B
Tue 10:01:35 AM 32.7090 34.1330 174° South 307 353 15,800 -1,886 Descending FlightAware ADS-B
Tue 10:02:08 AM 32.6660 34.1380 174° South 302 348 15,000 -1,457 Descending FlightAware ADS-B
Tue 10:02:45 AM 32.6120 34.1450 174° South 299 344 14,100 -1,543 Descending FlightAware ADS-B
Tue 10:03:18 AM 32.5670 34.1510 174° South 303 349 13,200 -1,739 Descending FlightAware ADS-B
Tue 10:03:54 AM 32.5150 34.1580 174° South 299 344 12,100 -1,688 Descending FlightAware ADS-B
Tue 10:04:22 AM 32.4810 34.1690 165° South 299 344 11,400 -1,406 Descending FlightAware ADS-B
Tue 10:04:58 AM 32.4430 34.2100 138° Southeast 294 338 10,600 -1,147 Descending FlightAware ADS-B
Tue 10:05:30 AM 32.4130 34.2460 135° Southeast 287 330 10,100 -1,105 Descending FlightAware ADS-B
Tue 10:06:14 AM 32.3710 34.2950 135° Southeast 281 323 9,200 -1,313 Descending FlightAware ADS-B
Tue 10:06:34 AM 32.3530 34.3170 134° Southeast 279 321 8,700 -1,263 Descending FlightAware ADS-B
Tue 10:06:52 AM 32.3370 34.3350 136° Southeast 277 319 8,400 -947 Descending FlightAware ADS-B
Tue 10:07:12 AM 32.3200 34.3550 135° Southeast 272 313 8,100 -1,050 Descending FlightAware ADS-B
Tue 10:07:32 AM 32.3020 34.3760 135° Southeast 268 308 7,700 -1,125 Descending FlightAware ADS-B
Tue 10:08:00 AM 32.2770 34.4050 136° Southeast 265 305 7,200 -545 Descending FlightAware ADS-B
Tue 10:08:27 AM 32.2570 34.4280 136° Southeast 265 305 7,200 -796 Level FlightAware ADS-B
Tue 10:09:43 AM 32.2170 34.4850 130° Southeast 5,800 -1,047 Descending FlightAware ADS-B
Tue 10:09:53 AM 32.1930 34.5320 121° Southeast 266 306 5,700 -462 Descending FlightAware ADS-B
Tue 10:10:09 AM 32.1850 34.5480 121° Southeast 265 305 5,600 -533 Descending FlightAware ADS-B
Tue 10:10:38 AM 32.1650 34.5860 122° Southeast 263 303 5,300 -327 Descending FlightAware ADS-B
Tue 10:11:04 AM 32.1510 34.6130 121° Southeast 263 303 5,300 -113 Level FlightAware ADS-B
Tue 10:11:31 AM 32.1310 34.6500 123° Southeast 259 298 5,200 -109 Descending FlightAware ADS-B
Tue 10:11:59 AM 32.1150 34.6780 124° Southeast 259 298 5,200  Level FlightAware ADS-B
Tue 10:12:19 AM 32.1060 34.6940 124° Southeast 260 299 5,200  Level FlightAware ADS-B
Tue 10:12:44 AM 32.0920 34.7190 123° Southeast 260 299 5,200  Level FlightAware ADS-B
Tue 10:13:17 AM 32.1060 34.6940 303° West 250 288 5,200 -140 Level FlightAware ADS-B
Tue 10:13:27 AM 32.0510 34.7860 125° Southeast 238 274 5,100 -400 Descending FlightAware ADS-B
Tue 10:13:47 AM 32.0360 34.8030 136° Southeast 235 270 5,000 -409 Descending FlightAware ADS-B
Tue 10:14:11 AM 32.0150 34.8260 137° Southeast 236 272 4,800 -706 Descending FlightAware ADS-B
Tue 10:14:38 AM 31.9960 34.8480 136° Southeast 235 270 4,400 -571 Descending FlightAware ADS-B
Tue 10:15:14 AM 31.9710 34.8770 135° Southeast 235 270 4,200 -1,500 Descending FlightAware ADS-B
Tue 10:15:26 AM 31.9740 34.8970 80° East 230 265 3,200 -2,545 Descending FlightAware ADS-B
Tue 10:15:47 AM 31.9790 34.9230 77° East 209 241 2,800 -1,116 Descending FlightAware ADS-B
Tue 10:16:09 AM 31.9850 34.9480 74° East 182 209 2,400 -1,071 Descending FlightAware ADS-B
Tue 10:16:15 AM 31.9860 34.9500 59° Northeast 179 206 2,300 -750 Descending FlightAware ADS-B
Tue 10:16:25 AM 31.9910 34.9570 50° Northeast 171 197 2,200 -857 Descending FlightAware ADS-B
Tue 10:16:29 AM 31.9930 34.9600 52° Northeast 168 193 2,100 -1,200 Descending FlightAware ADS-B
Tue 10:16:35 AM 31.9970 34.9620 23° Northeast 161 185 2,000 -1,059 Descending FlightAware ADS-B
Tue 10:16:46 AM 32.0070 34.9630 North 154 177 1,800 -889 Descending FlightAware ADS-B
Tue 10:17:02 AM 32.0160 34.9610 349° North 152 175 1,600 -692 Descending FlightAware ADS-B
Tue 10:17:12 AM 32.0220 34.9580 337° Northwest 152 175 1,500 -1,000 Descending FlightAware ADS-B
Tue 10:17:26 AM 32.0270 34.9490 303° West 151 174 1,200 -833 Descending FlightAware ADS-B
Tue 10:17:48 AM 32.0240 34.9300 259° West 156 180 1,000 -305 Descending FlightAware ADS-B
Tue 10:18:25 AM 32.0190 34.9040 257° West 157 181 900 -162 Descending FlightAware ADS-B

Login

Don't have an account? Register now (free) for customized features, flight alerts, and more!